M I D A S
Marine Information and Data Acquisition System
Tripno 2293 of the Zeeleeuw from 2012-04-19 13:09:01 to 2012-04-19 13:09:03
Back to CruiseResearch ActivitiesStationsMapUnderway DataData graphs

EquipmentUnitsComment
TimeDGPSUTC
LatitudeDGPSDM.mWGS84
LongitudeDGPSDM.mWGS84
TemperatureSBE03/SBE38deg celciusITS90
ConductivitySBE21S/mITS90
SalinitySBE21 Practical Salinity Units
ChlorophylAChelsea fluorimeterg/lCalibrated in Aceton
Missing or incorrect values are displayed as -999
Sea surface data collected by the RV Zeeleeuw from 2012-04-19 08:09:03 to 2012-04-19 13:27:47
                                                                                    Next 1000 lines
Time Latitude Longitude Temperature Conductivity Salinity ChlorophylA
2012-04-19 08:09:13 51°26.034 2°48.662 15.407 1.444918 9.695883 -2.458615
2012-04-19 08:09:19 51°26.044 2°48.666 15.4044 1.059594 6.934344 -2.458615
2012-04-19 08:09:23 51°26.051 2°48.665 15.4049 0.972347 6.320699 -2.458615
2012-04-19 08:09:28 51°26.059 2°48.663 15.4021 0.761142 4.858779 -2.458615
2012-04-19 08:09:33 51°26.066 2°48.659 15.4005 0.807165 5.174077 -2.458615
2012-04-19 08:09:39 51°26.074 2°48.653 15.401 0.807165 5.174077 -2.458615
2012-04-19 08:09:43 51°26.079 2°48.649 15.4005 0.730463 4.648336 -2.458615
2012-04-19 08:09:48 51°26.085 2°48.641 15.4004 0.799855 5.123313 -2.458615
2012-04-19 08:09:53 51°26.089 2°48.633 15.4001 0.863902 5.564384 -2.458615
2012-04-19 08:09:58 51°26.092 2°48.624 15.4017 0.96936 6.297416 -2.458615
2012-04-19 08:10:03 51°26.096 2°48.615 15.4015 0.826626 5.306009 -2.458615
2012-04-19 08:10:08 51°26.098 2°48.606 15.4018 0.826626 5.306009 -2.458615
2012-04-19 08:10:13 51°26.099 2°48.599 15.4013 1.012724 6.600773 -2.458615
2012-04-19 08:10:18 51°26.101 2°48.592 15.4039 1.065981 6.97558 -2.458615
2012-04-19 08:10:23 51°26.102 2°48.585 15.4049 1.086276 7.119282 -2.458615
2012-04-19 08:10:28 51°26.103 2°48.58 15.4056 1.104923 7.251725 -2.458615
2012-04-19 08:10:33 51°26.105 2°48.576 15.4057 1.034459 6.755053 -2.458615
2012-04-19 08:10:38 51°26.106 2°48.572 15.4062 1.034459 6.755053 -2.458615
2012-04-19 08:10:43 51°26.107 2°48.568 15.4062 1.029102 6.717627 -2.458615
2012-04-19 08:10:48 51°26.107 2°48.565 15.4078 1.086276 7.121035 -2.458615
2012-04-19 08:10:53 51°26.108 2°48.562 15.4098 1.037652 6.777911 -2.458615
2012-04-19 08:10:58 51°26.108 2°48.56 15.4062 1.088439 7.136465 -2.458615
2012-04-19 08:11:03 51°26.108 2°48.558 15.4083 1.038579 6.784822 -2.458615
2012-04-19 08:11:08 51°26.108 2°48.557 15.4114 1.038579 6.784822 -2.458615
2012-04-19 08:11:13 51°26.108 2°48.557 15.411 1.057121 6.915725 -2.458615
2012-04-19 08:11:18 51°26.108 2°48.557 15.4112 1.001496 6.524582 -2.458615
2012-04-19 08:11:23 51°26.108 2°48.556 15.4114 0.989754 6.442239 -2.458615
2012-04-19 08:11:27 51°26.108 2°48.556 15.4113 1.035798 6.765373 -2.458615
2012-04-19 08:11:33 51°26.108 2°48.555 15.4105 1.037755 6.778893 -2.458615
2012-04-19 08:11:38 51°26.108 2°48.555 15.4128 1.037755 6.778893 -2.458615
2012-04-19 08:11:43 51°26.108 2°48.554 15.4113 1.040124 6.795572 -2.458615
2012-04-19 08:11:48 51°26.108 2°48.554 15.4142 1.078549 7.066701 -2.458615
2012-04-19 08:11:53 51°26.108 2°48.553 15.4138 1.007471 6.56651 -2.458615
2012-04-19 08:11:58 51°26.108 2°48.553 15.4131 1.046717 6.842521 -2.458615
2012-04-19 08:12:03 51°26.109 2°48.552 15.4127 1.060212 6.93739 -2.458615
2012-04-19 08:12:08 51°26.109 2°48.552 15.4131 1.060212 6.93739 -2.458615
2012-04-19 08:12:13 51°26.109 2°48.552 15.4143 1.072883 7.026815 -2.458615
2012-04-19 08:12:18 51°26.109 2°48.552 15.4154 1.007161 6.563968 -2.458615
2012-04-19 08:12:23 51°26.109 2°48.552 15.4136 0.943611 6.119202 -2.458615
2012-04-19 08:12:28 51°26.109 2°48.551 15.4124 1.044554 6.826506 -2.458615
2012-04-19 08:12:33 51°26.109 2°48.551 15.4126 1.051456 6.875001 -2.458615
2012-04-19 08:12:38 51°26.109 2°48.551 15.415 1.051456 6.875001 -2.458615
2012-04-19 08:12:43 51°26.109 2°48.55 15.4152 1.044657 6.827102 -2.458615
2012-04-19 08:12:48 51°26.109 2°48.55 15.414 0.996449 6.488072 -2.458615
2012-04-19 08:12:53 51°26.109 2°48.55 15.413 1.00335 6.536354 -2.458615
2012-04-19 08:12:58 51°26.109 2°48.55 15.4162 1.004586 6.545026 -2.458615
2012-04-19 08:13:03 51°26.109 2°48.549 15.4191 1.040742 6.79928 -2.458615
2012-04-19 08:13:08 51°26.109 2°48.549 15.4196 1.040742 6.79928 -2.458615
2012-04-19 08:13:13 51°26.109 2°48.549 15.42 1.024879 6.688183 -2.458615
2012-04-19 08:13:18 51°26.109 2°48.548 15.4198 1.0222 6.669608 -2.458615
2012-04-19 08:13:23 51°26.11 2°48.548 15.401 1.018904 6.646693 -2.458615
2012-04-19 08:13:28 51°26.109 2°48.548 15.5035 1.002732 6.532636 -2.458615
2012-04-19 08:13:33 51°26.11 2°48.548 15.539 1.061654 6.946774 -2.458615
2012-04-19 08:13:39 51°26.11 2°48.548 15.6226 1.061654 6.946774 -2.458615
2012-04-19 08:13:43 51°26.11 2°48.547 15.6527 1.048056 6.850658 -2.458615
2012-04-19 08:13:47 51°26.11 2°48.547 15.6209 1.031368 6.733185 -2.458615
2012-04-19 08:13:53 51°26.109 2°48.547 15.6352 1.039918 6.793607 -2.458615
2012-04-19 08:13:58 51°26.109 2°48.547 15.6476 1.037446 6.775691 -2.458615
2012-04-19 08:14:03 51°26.11 2°48.547 15.6183 1.047541 6.84703 -2.458615
2012-04-19 08:14:08 51°26.109 2°48.546 15.6142 1.047541 6.84703 -2.458615
2012-04-19 08:14:13 51°26.11 2°48.546 15.6059 1.028175 6.711361 -2.458615
2012-04-19 08:14:18 51°26.109 2°48.546 15.6041 1.0222 6.66986 -2.458615
2012-04-19 08:14:23 51°26.109 2°48.546 15.6066 1.036622 6.771558 -2.458615
2012-04-19 08:14:28 51°26.11 2°48.546 15.6114 1.043421 6.819559 -2.458615
2012-04-19 08:14:33 51°26.11 2°48.545 15.6157 1.04476 6.829121 -2.458615
2012-04-19 08:14:38 51°26.11 2°48.545 15.6006 1.04476 6.829121 -2.458615
2012-04-19 08:14:43 51°26.11 2°48.545 15.5988 1.02251 6.672665 -2.458615
2012-04-19 08:14:48 51°26.11 2°48.545 15.607 1.032398 6.742218 -2.458615
2012-04-19 08:14:53 51°26.11 2°48.545 15.6045 1.014784 6.618496 -2.458615
2012-04-19 08:14:58 51°26.11 2°48.545 15.6019 0.927751 6.009873 -2.458615
2012-04-19 08:15:03 51°26.11 2°48.545 15.6095 1.005513 6.553641 -2.458615
2012-04-19 08:15:08 51°26.11 2°48.545 15.609 1.005513 6.553641 -2.458615
2012-04-19 08:15:13 51°26.11 2°48.545 15.6089 0.978218 6.362034 -2.458615
2012-04-19 08:15:18 51°26.111 2°48.545 15.6091 0.983368 6.397738 -2.458615
2012-04-19 08:15:23 51°26.111 2°48.545 15.6187 1.021273 6.66347 -2.458615
2012-04-19 08:15:27 51°26.111 2°48.545 15.6226 1.030235 6.726361 -2.458615
2012-04-19 08:15:33 51°26.111 2°48.544 15.6144 1.019728 6.652484 -2.458615
2012-04-19 08:15:38 51°26.111 2°48.544 15.6199 1.019728 6.652484 -2.458615
2012-04-19 08:15:43 51°26.112 2°48.544 15.6151 1.038476 6.784354 -2.458615
2012-04-19 08:15:48 51°26.112 2°48.543 15.6272 1.029514 6.721543 -2.458615
2012-04-19 08:15:53 51°26.112 2°48.543 15.6377 1.015196 6.620889 -2.458615
2012-04-19 08:15:58 51°26.112 2°48.543 15.6232 1.041154 6.803469 -2.458615
2012-04-19 08:16:03 51°26.112 2°48.543 15.646 1.056091 6.908854 -2.458615
2012-04-19 08:16:08 51°26.112 2°48.543 15.6395 1.056091 6.908854 -2.458615
2012-04-19 08:16:13 51°26.112 2°48.543 15.634 1.035386 6.76273 -2.458615
2012-04-19 08:16:18 51°26.112 2°48.542 15.6289 1.020655 6.659126 -2.458615
2012-04-19 08:16:23 51°26.112 2°48.542 15.6371 1.000157 6.515187 -2.458615
2012-04-19 08:16:28 51°26.113 2°48.542 15.6428 0.942375 6.111042 -2.458615
2012-04-19 08:16:33 51°26.113 2°48.542 15.6518 1.014578 6.616422 -2.458615
2012-04-19 08:16:38 51°26.113 2°48.542 15.6497 1.014578 6.616422 -2.458615
2012-04-19 08:16:43 51°26.113 2°48.542 15.6472 0.998612 6.504349 -2.458615
2012-04-19 08:16:48 51°26.113 2°48.541 15.6488 1.052898 6.886078 -2.458615
2012-04-19 08:16:53 51°26.113 2°48.541 15.6519 1.026424 6.699808 -2.458615
2012-04-19 08:16:58 51°26.113 2°48.541 15.657 1.023231 6.677608 -2.458615
2012-04-19 08:17:03 51°26.113 2°48.541 15.6691 1.042597 6.814012 -2.458615
2012-04-19 08:17:08 51°26.113 2°48.541 15.6631 1.042597 6.814012 -2.458615
2012-04-19 08:17:13 51°26.114 2°48.54 15.6618 0.997479 6.497386 -2.458615
2012-04-19 08:17:18 51°26.113 2°48.54 15.659 1.004689 6.548229 -2.458615
2012-04-19 08:17:23 51°26.114 2°48.54 15.6529 1.017256 6.63662 -2.458615
2012-04-19 08:17:28 51°26.114 2°48.54 15.6501 1.013445 6.610591 -2.458615
2012-04-19 08:17:33 51°26.114 2°48.539 15.657 1.019316 6.653117 -2.458615
2012-04-19 08:17:38 51°26.114 2°48.539 15.6784 1.019316 6.653117 -2.458615
2012-04-19 08:17:43 51°26.114 2°48.539 15.693 0.98172 6.389946 -2.458615
2012-04-19 08:17:48 51°26.114 2°48.539 15.6791 1.010767 6.594025 -2.458615
2012-04-19 08:17:53 51°26.114 2°48.539 15.6636 1.003659 6.543602 -2.458615
2012-04-19 08:17:58 51°26.115 2°48.538 15.6739 1.004483 6.549513 -2.458615
2012-04-19 08:18:03 51°26.115 2°48.538 15.6646 1.025085 6.694576 -2.458615
2012-04-19 08:18:08 51°26.115 2°48.538 15.6656 1.025085 6.694576 -2.458615
2012-04-19 08:18:13 51°26.115 2°48.538 15.6641 1.040124 6.800854 -2.458615
2012-04-19 08:18:18 51°26.115 2°48.538 15.6631 1.036931 6.778099 -2.458615
2012-04-19 08:18:23 51°26.116 2°48.538 15.6683 1.026012 6.701099 -2.458615
2012-04-19 08:18:28 51°26.116 2°48.537 15.6781 1.004998 6.553502 -2.458615
2012-04-19 08:18:33 51°26.116 2°48.537 15.6753 1.016741 6.636395 -2.458615
2012-04-19 08:18:38 51°26.116 2°48.537 15.6882 1.016741 6.636395 -2.458615
2012-04-19 08:18:43 51°26.116 2°48.537 15.6871 1.035798 6.770888 -2.458615
2012-04-19 08:18:48 51°26.116 2°48.536 15.691 1.052383 6.888059 -2.458615
2012-04-19 08:18:53 51°26.117 2°48.536 15.6851 1.060315 6.944168 -2.458615
2012-04-19 08:18:58 51°26.117 2°48.536 15.6797 1.045996 6.843275 -2.458615
2012-04-19 08:19:03 51°26.117 2°48.536 15.6988 1.009119 6.583069 -2.458615
2012-04-19 08:19:08 51°26.117 2°48.535 15.7304 1.009119 6.583069 -2.458615
2012-04-19 08:19:13 51°26.118 2°48.536 15.6987 0.993771 6.475059 -2.458615
2012-04-19 08:19:18 51°26.118 2°48.535 15.6947 1.008089 6.575457 -2.458615
2012-04-19 08:19:23 51°26.118 2°48.535 15.6963 1.019934 6.658851 -2.458615
2012-04-19 08:19:27 51°26.118 2°48.535 15.6936 1.011488 6.599717 -2.458615
2012-04-19 08:19:33 51°26.118 2°48.535 15.7109 1.018286 6.647764 -2.458615
2012-04-19 08:19:38 51°26.118 2°48.534 15.7151 1.018286 6.647764 -2.458615
2012-04-19 08:19:43 51°26.118 2°48.534 15.7044 1.001393 6.529672 -2.458615
2012-04-19 08:19:47 51°26.118 2°48.534 15.7089 1.012415 6.607486 -2.458615
2012-04-19 08:19:53 51°26.118 2°48.533 15.7229 1.004587 6.552844 -2.458615
2012-04-19 08:19:58 51°26.119 2°48.533 15.7277 1.031883 6.745112 -2.458615
2012-04-19 08:20:03 51°26.119 2°48.533 15.7104 1.009737 6.589535 -2.458615
2012-04-19 08:20:08 51°26.12 2°48.533 15.7192 1.009737 6.589535 -2.458615
2012-04-19 08:20:13 51°26.12 2°48.533 15.7118 1.02354 6.686494 -2.458615
2012-04-19 08:20:18 51°26.12 2°48.533 15.7091 1.002938 6.541639 -2.458615
2012-04-19 08:20:23 51°26.12 2°48.533 15.7095 1.03621 6.775847 -2.458615
2012-04-19 08:20:28 51°26.121 2°48.533 15.7118 0.995007 6.486191 -2.458615
2012-04-19 08:20:33 51°26.121 2°48.532 15.7105 1.01911 6.655705 -2.458615
2012-04-19 08:20:38 51°26.121 2°48.532 15.7235 1.01911 6.655705 -2.458615
2012-04-19 08:20:43 51°26.121 2°48.532 15.727 1.027557 6.715283 -2.458615
2012-04-19 08:20:48 51°26.121 2°48.532 15.7315 1.001393 6.531405 -2.458615
2012-04-19 08:20:53 51°26.121 2°48.532 15.7169 0.994595 6.483667 -2.458615
2012-04-19 08:20:58 51°26.122 2°48.532 15.7229 1.002011 6.535747 -2.458615
2012-04-19 08:21:03 51°26.122 2°48.532 15.7339 1.022201 6.677703 -2.458615
2012-04-19 08:21:08 51°26.122 2°48.532 15.7312 1.022201 6.677703 -2.458615
2012-04-19 08:21:13 51°26.123 2°48.532 15.7216 1.024364 6.692929 -2.458615
2012-04-19 08:21:18 51°26.122 2°48.531 15.7224 1.035386 6.770682 -2.458615
2012-04-19 08:21:23 51°26.123 2°48.531 15.7274 0.997376 6.503439 -2.458615
2012-04-19 08:21:28 51°26.123 2°48.531 15.7216 0.986973 6.430545 -2.458615
2012-04-19 08:21:33 51°26.123 2°48.531 15.7313 1.001805 6.534671 -2.458615
2012-04-19 08:21:38 51°26.123 2°48.531 15.7188 1.001805 6.534671 -2.458615
2012-04-19 08:21:43 51°26.123 2°48.531 15.7254 1.014372 6.623129 -2.458615
2012-04-19 08:21:48 51°26.124 2°48.53 15.7345 0.99099 6.459099 -2.458615
2012-04-19 08:21:53 51°26.124 2°48.53 15.7408 0.996449 6.497423 -2.458615
2012-04-19 08:21:58 51°26.124 2°48.53 15.7353 0.992741 6.47139 -2.458615
2012-04-19 08:22:03 51°26.124 2°48.53 15.7316 1.002011 6.536739 -2.458615
2012-04-19 08:22:08 51°26.125 2°48.53 15.7482 1.002011 6.536739 -2.458615
2012-04-19 08:22:13 51°26.125 2°48.529 15.7333 1.019934 6.662767 -2.458615
2012-04-19 08:22:18 51°26.125 2°48.529 15.739 1.000672 6.527455 -2.458615
2012-04-19 08:22:23 51°26.126 2°48.528 15.7475 1.039197 6.798704 -2.458615
2012-04-19 08:22:28 51°26.126 2°48.528 15.7364 1.000363 6.525408 -2.458615
2012-04-19 08:22:33 51°26.126 2°48.528 15.7394 1.023025 6.684771 -2.458615
2012-04-19 08:22:38 51°26.127 2°48.528 15.7341 1.023025 6.684771 -2.458615
2012-04-19 08:22:43 51°26.126 2°48.527 15.7289 1.043318 6.827759 -2.458615
2012-04-19 08:22:47 51°26.126 2°48.527 15.7282 1.02251 6.681272 -2.458615
2012-04-19 08:22:53 51°26.127 2°48.527 15.7317 1.001702 6.535063 -2.458615
2012-04-19 08:22:58 51°26.127 2°48.527 15.7475 1.018801 6.655298 -2.458615
2012-04-19 08:23:03 51°26.128 2°48.526 15.7583 1.024158 6.692875 -2.458615
2012-04-19 08:23:08 51°26.129 2°48.526 15.7506 1.024158 6.692875 -2.458615
2012-04-19 08:23:13 51°26.13 2°48.526 15.7423 0.974304 6.342323 -2.458615
2012-04-19 08:23:18 51°26.13 2°48.526 15.7397 0.997067 6.501393 -2.458615
2012-04-19 08:23:23 51°26.13 2°48.525 15.75 1.007368 6.573632 -2.458615
2012-04-19 08:23:28 51°26.13 2°48.525 15.7508 1.04476 6.836893 -2.458615
2012-04-19 08:23:33 51°26.13 2°48.525 15.7469 1.012003 6.606218 -2.458615
2012-04-19 08:23:38 51°26.131 2°48.525 15.7444 1.012003 6.606218 -2.458615
2012-04-19 08:23:43 51°26.131 2°48.525 15.7491 1.011694 6.603794 -2.458615
2012-04-19 08:23:48 51°26.13 2°48.524 15.7541 1.009634 6.589186 -2.458615
2012-04-19 08:23:53 51°26.131 2°48.524 15.7565 0.995934 6.492698 -2.458615
2012-04-19 08:23:58 51°26.131 2°48.524 15.7557 1.033223 6.754928 -2.458615
2012-04-19 08:24:03 51°26.131 2°48.524 15.7486 1.009119 6.585316 -2.458615
2012-04-19 08:24:07 51°26.131 2°48.524 15.749 1.009119 6.585316 -2.458615
2012-04-19 08:24:13 51°26.132 2°48.523 15.751 1.034562 6.764491 -2.458615
2012-04-19 08:24:18 51°26.132 2°48.523 15.7529 1.004072 6.549847 -2.458615
2012-04-19 08:24:23 51°26.132 2°48.524 15.7543 1.021686 6.673699 -2.458615
2012-04-19 08:24:28 51°26.133 2°48.524 15.7529 1.032296 6.748654 -2.458615
2012-04-19 08:24:33 51°26.133 2°48.524 15.7578 1.002732 6.541184 -2.458615
2012-04-19 08:24:38 51°26.133 2°48.524 15.7565 1.002732 6.541184 -2.458615
2012-04-19 08:24:43 51°26.133 2°48.524 15.756 0.99202 6.466329 -2.458615
2012-04-19 08:24:48 51°26.133 2°48.524 15.759 1.003351 6.546395 -2.458615
2012-04-19 08:24:53 51°26.133 2°48.523 15.7654 1.027248 6.714762 -2.458615
2012-04-19 08:24:58 51°26.134 2°48.524 15.7614 1.011694 6.605674 -2.458615
2012-04-19 08:25:03 51°26.134 2°48.524 15.7625 0.999436 6.520009 -2.458615
2012-04-19 08:25:07 51°26.134 2°48.524 15.76 0.999436 6.520009 -2.458615
2012-04-19 08:25:13 51°26.134 2°48.524 15.7588 0.995831 6.495055 -2.458615
2012-04-19 08:25:18 51°26.134 2°48.524 15.7589 1.02354 6.690047 -2.458615
2012-04-19 08:25:23 51°26.134 2°48.524 15.7642 1.031987 6.75019 -2.458615
2012-04-19 08:25:28 51°26.134 2°48.524 15.7633 1.005308 6.561892 -2.458615
2012-04-19 08:25:33 51°26.135 2°48.524 15.768 1.021686 6.677498 -2.458615
2012-04-19 08:25:38 51°26.135 2°48.524 15.7697 1.021686 6.677498 -2.458615
2012-04-19 08:25:43 51°26.135 2°48.524 15.7719 0.989033 6.447934 -2.458615
2012-04-19 08:25:48 51°26.135 2°48.525 15.7664 0.980484 6.387581 -2.458615
2012-04-19 08:25:53 51°26.135 2°48.525 15.7658 1.020141 6.665987 -2.458615
2012-04-19 08:25:58 51°26.135 2°48.525 15.7651 0.992329 6.470461 -2.458615
2012-04-19 08:26:03 51°26.135 2°48.525 15.774 0.996449 6.500012 -2.458615
2012-04-19 08:26:08 51°26.135 2°48.525 15.7729 0.996449 6.500012 -2.458615
2012-04-19 08:26:13 51°26.135 2°48.525 15.7702 1.016638 6.642472 -2.458615
2012-04-19 08:26:18 51°26.136 2°48.525 15.7706 1.010561 6.599834 -2.458615
2012-04-19 08:26:23 51°26.136 2°48.526 15.7712 1.001393 6.535744 -2.458615
2012-04-19 08:26:27 51°26.135 2°48.525 15.7712 1.006235 6.570155 -2.458615
2012-04-19 08:26:33 51°26.136 2°48.526 15.7718 0.994389 6.48702 -2.458615
2012-04-19 08:26:38 51°26.136 2°48.526 15.7713 0.994389 6.48702 -2.458615
2012-04-19 08:26:43 51°26.136 2°48.526 15.7744 1.030338 6.740366 -2.458615
2012-04-19 08:26:48 51°26.136 2°48.526 15.774 1.006853 6.57525 -2.458615
2012-04-19 08:26:53 51°26.136 2°48.526 15.7747 1.009016 6.590592 -2.458615
2012-04-19 08:26:58 51°26.136 2°48.527 15.7755 0.997994 6.513215 -2.458615
2012-04-19 08:27:03 51°26.136 2°48.527 15.7745 0.969051 6.310309 -2.458615
2012-04-19 08:27:08 51°26.137 2°48.527 15.7762 0.969051 6.310309 -2.458615
2012-04-19 08:27:13 51°26.137 2°48.527 15.7769 1.000467 6.531088 -2.458615
2012-04-19 08:27:18 51°26.137 2°48.527 15.7774 1.035592 6.778693 -2.458615
2012-04-19 08:27:23 51°26.137 2°48.527 15.7781 1.003145 6.550167 -2.458615
2012-04-19 08:27:28 51°26.138 2°48.527 15.779 0.989136 6.45184 -2.458615
2012-04-19 08:27:33 51°26.138 2°48.527 15.7832 1.00778 6.583146 -2.458615
2012-04-19 08:27:38 51°26.138 2°48.528 15.7822 1.00778 6.583146 -2.458615
2012-04-19 08:27:43 51°26.138 2°48.528 15.7809 1.003042 6.550314 -2.458615
2012-04-19 08:27:48 51°26.138 2°48.528 15.7816 0.998921 6.522084 -2.458615
2012-04-19 08:27:53 51°26.138 2°48.528 15.7842 1.003763 6.556257 -2.458615
2012-04-19 08:27:58 51°26.138 2°48.528 15.7842 0.820551 5.278529 -2.458615
2012-04-19 08:28:03 51°26.139 2°48.528 15.7845 0.992432 6.475239 -2.458615
2012-04-19 08:28:08 51°26.139 2°48.528 15.7847 0.992432 6.475239 -2.458615
2012-04-19 08:28:13 51°26.139 2°48.529 15.7853 0.974819 6.35075 -2.458615
2012-04-19 08:28:18 51°26.139 2°48.529 15.786 1.009428 6.593616 -2.458615
2012-04-19 08:28:23 51°26.14 2°48.529 15.787 0.989754 6.455323 -2.458615
2012-04-19 08:28:27 51°26.14 2°48.529 15.7883 1.006544 6.573576 -2.458615
2012-04-19 08:28:33 51°26.14 2°48.529 15.7879 1.003969 6.555838 -2.458615
2012-04-19 08:28:38 51°26.141 2°48.529 15.7882 1.003969 6.555838 -2.458615
2012-04-19 08:28:43 51°26.141 2°48.529 15.7888 0.999436 6.524094 -2.458615
2012-04-19 08:28:48 51°26.141 2°48.529 15.7914 0.996758 6.505393 -2.458615
2012-04-19 08:28:53 51°26.141 2°48.529 15.791 1.010973 6.605993 -2.458615
2012-04-19 08:28:58 51°26.142 2°48.529 15.7941 0.991402 6.468863 -2.458615
2012-04-19 08:29:03 51°26.142 2°48.529 15.7932 1.00778 6.584397 -2.458615
2012-04-19 08:29:08 51°26.142 2°48.529 15.7926 1.00778 6.584397 -2.458615
2012-04-19 08:29:13 51°26.143 2°48.529 15.7928 0.979454 6.385689 -2.458615
2012-04-19 08:29:18 51°26.143 2°48.529 15.7936 0.972347 6.335701 -2.458615
2012-04-19 08:29:23 51°26.143 2°48.529 15.7941 0.996552 6.505551 -2.458615
2012-04-19 08:29:28 51°26.144 2°48.529 15.7942 0.998303 6.517738 -2.458615
2012-04-19 08:29:33 51°26.144 2°48.53 15.7945 1.009634 6.59732 -2.458615
2012-04-19 08:29:38 51°26.145 2°48.53 15.7961 1.009634 6.59732 -2.458615
2012-04-19 08:29:43 51°26.145 2°48.53 15.7959 1.000982 6.536695 -2.458615
2012-04-19 08:29:48 51°26.145 2°48.53 15.7975 0.977085 6.369062 -2.458615
2012-04-19 08:29:53 51°26.146 2°48.531 15.7978 0.96452 6.281054 -2.458615
2012-04-19 08:29:58 51°26.146 2°48.531 15.7988 0.996655 6.506399 -2.458615
2012-04-19 08:30:03 51°26.146 2°48.531 15.799 0.993977 6.487204 -2.458615
2012-04-19 08:30:08 51°26.147 2°48.531 15.8 0.993977 6.487204 -2.458615
2012-04-19 08:30:13 51°26.147 2°48.532 15.8008 0.986458 6.434133 -2.458615
2012-04-19 08:30:18 51°26.147 2°48.532 15.8014 0.998509 6.518815 -2.458615
2012-04-19 08:30:23 51°26.147 2°48.532 15.8008 0.99099 6.465845 -2.458615
2012-04-19 08:30:28 51°26.148 2°48.533 15.8025 1.034562 6.772585 -2.458615
2012-04-19 08:30:33 51°26.148 2°48.533 15.8034 1.016638 6.646257 -2.458615
2012-04-19 08:30:38 51°26.148 2°48.533 15.8033 1.016638 6.646257 -2.458615
2012-04-19 08:30:43 51°26.149 2°48.534 15.8041 0.98378 6.415206 -2.458615
2012-04-19 08:30:48 51°26.149 2°48.534 15.8045 0.98584 6.429915 -2.458615
2012-04-19 08:30:53 51°26.149 2°48.534 15.805 0.996964 6.508695 -2.458615
2012-04-19 08:30:58 51°26.15 2°48.535 15.8056 1.002836 6.550358 -2.458615
2012-04-19 08:31:03 51°26.15 2°48.535 15.806 0.943715 6.136072 -2.458615
2012-04-19 08:31:08 51°26.151 2°48.536 15.8072 0.943715 6.136072 -2.458615
2012-04-19 08:31:13 51°26.151 2°48.536 15.807 0.967506 6.302352 -2.458615
2012-04-19 08:31:18 51°26.152 2°48.536 15.808 0.972244 6.33546 -2.458615
2012-04-19 08:31:23 51°26.152 2°48.537 15.808 0.980072 6.390148 -2.458615
2012-04-19 08:31:28 51°26.152 2°48.537 15.8083 0.985016 6.424739 -2.458615
2012-04-19 08:31:33 51°26.152 2°48.537 15.8098 1.008604 6.590446 -2.458615
2012-04-19 08:31:38 51°26.152 2°48.538 15.8098 1.008604 6.590446 -2.458615
2012-04-19 08:31:43 51°26.152 2°48.538 15.8111 0.996552 6.505551 -2.458615
2012-04-19 08:31:48 51°26.152 2°48.539 15.8129 1.003351 6.553234 -2.458615
2012-04-19 08:31:53 51°26.153 2°48.539 15.8099 1.008707 6.591046 -2.458615
2012-04-19 08:31:58 51°26.153 2°48.539 15.8138 0.991711 6.471894 -2.458615
2012-04-19 08:32:03 51°26.153 2°48.539 15.8149 0.996655 6.507264 -2.458615
2012-04-19 08:32:08 51°26.153 2°48.54 15.8153 0.996655 6.507264 -2.458615
2012-04-19 08:32:13 51°26.153 2°48.54 15.8156 0.994286 6.491225 -2.458615
2012-04-19 08:32:18 51°26.154 2°48.541 15.8167 1.009428 6.598628 -2.458615
2012-04-19 08:32:23 51°26.154 2°48.541 15.8158 0.975437 6.360277 -2.458615
2012-04-19 08:32:28 51°26.154 2°48.542 15.8151 1.019729 6.672332 -2.458615
2012-04-19 08:32:33 51°26.155 2°48.542 15.8192 0.987179 6.44299 -2.458615
2012-04-19 08:32:38 51°26.155 2°48.542 15.8205 0.987179 6.44299 -2.458615
2012-04-19 08:32:43 51°26.155 2°48.543 15.8204 1.007677 6.58655 -2.458615
2012-04-19 08:32:47 51°26.155 2°48.543 15.8165 0.996655 6.508748 -2.458615
2012-04-19 08:32:53 51°26.155 2°48.543 15.8173 0.988209 6.449249 -2.458615
2012-04-19 08:32:58 51°26.155 2°48.543 15.8211 1.027557 6.726513 -2.458615
2012-04-19 08:33:03 51°26.155 2°48.544 15.822 1.039404 6.810755 -2.458615
2012-04-19 08:33:07 51°26.156 2°48.544 15.8229 1.039404 6.810755 -2.458615
2012-04-19 08:33:13 51°26.156 2°48.544 15.823 0.992535 6.481009 -2.458615
2012-04-19 08:33:18 51°26.156 2°48.545 15.8214 0.995419 6.501662 -2.458615
2012-04-19 08:33:23 51°26.156 2°48.545 15.8195 0.97451 6.354978 -2.458615
2012-04-19 08:33:28 51°26.156 2°48.545 15.8201 1.016432 6.650491 -2.458615
2012-04-19 08:33:33 51°26.156 2°48.545 15.818 1.0016 6.546389 -2.458615
2012-04-19 08:33:38 51°26.157 2°48.546 15.8214 1.0016 6.546389 -2.458615
2012-04-19 08:33:43 51°26.157 2°48.545 15.8253 1.000982 6.541914 -2.458615
2012-04-19 08:33:48 51°26.158 2°48.546 15.8268 0.971729 6.336542 -2.458615
2012-04-19 08:33:53 51°26.158 2°48.546 15.8265 0.989033 6.457985 -2.458615
2012-04-19 08:33:58 51°26.158 2°48.546 15.8283 0.979763 6.393201 -2.458615
2012-04-19 08:34:03 51°26.158 2°48.547 15.8251 0.985428 6.433499 -2.458615
2012-04-19 08:34:08 51°26.158 2°48.547 15.8285 0.985428 6.433499 -2.458615
2012-04-19 08:34:13 51°26.159 2°48.547 15.8306 0.974716 6.358963 -2.458615
2012-04-19 08:34:18 51°26.159 2°48.548 15.8297 0.989342 6.462492 -2.458615
2012-04-19 08:34:23 51°26.159 2°48.548 15.8293 1.018081 6.665404 -2.458615
2012-04-19 08:34:28 51°26.16 2°48.549 15.8269 0.979454 6.39407 -2.458615
2012-04-19 08:34:33 51°26.16 2°48.549 15.8286 1.004999 6.574195 -2.458615
2012-04-19 08:34:38 51°26.16 2°48.55 15.8319 1.004999 6.574195 -2.458615
2012-04-19 08:34:43 51°26.16 2°48.55 15.8324 1.005411 6.577849 -2.458615
2012-04-19 08:34:48 51°26.161 2°48.551 15.833 0.990475 6.471816 -2.458615
2012-04-19 08:34:53 51°26.161 2°48.551 15.835 1.019832 6.678263 -2.458615
2012-04-19 08:34:58 51°26.161 2°48.552 15.8337 0.988518 6.457311 -2.458615
2012-04-19 08:35:03 51°26.161 2°48.552 15.8311 0.998716 6.528946 -2.458615
2012-04-19 08:35:08 51°26.161 2°48.552 15.8329 0.998716 6.528946 -2.458615
2012-04-19 08:35:13 51°26.162 2°48.553 15.8309 0.988312 6.455862 -2.458615
2012-04-19 08:35:18 51°26.162 2°48.553 15.8338 0.999025 6.531742 -2.458615
2012-04-19 08:35:23 51°26.162 2°48.554 15.8362 0.99645 6.513861 -2.458615
2012-04-19 08:35:27 51°26.162 2°48.554 15.8351 0.999643 6.536467 -2.458615
2012-04-19 08:35:33 51°26.162 2°48.554 15.8356 0.993051 6.490183 -2.458615
2012-04-19 08:35:38 51°26.162 2°48.555 15.8414 0.993051 6.490183 -2.458615
2012-04-19 08:35:43 51°26.162 2°48.555 15.8394 0.986046 6.441273 -2.458615
2012-04-19 08:35:48 51°26.163 2°48.555 15.8394 0.999128 6.534084 -2.458615
2012-04-19 08:35:53 51°26.163 2°48.556 15.8372 0.980999 6.406636 -2.458615
2012-04-19 08:35:58 51°26.163 2°48.556 15.8414 0.997171 6.520922 -2.458615
2012-04-19 08:36:03 51°26.164 2°48.556 15.8383 1.015712 6.652113 -2.458615
2012-04-19 08:36:08 51°26.164 2°48.556 15.8463 1.015712 6.652113 -2.458615
2012-04-19 08:36:13 51°26.164 2°48.557 15.8392 0.986046 6.443357 -2.458615
2012-04-19 08:36:18 51°26.164 2°48.557 15.8409 1.023643 6.708602 -2.458615
2012-04-19 08:36:23 51°26.165 2°48.557 15.8368 1.007986 6.598509 -2.458615
2012-04-19 08:36:28 51°26.165 2°48.557 15.8428 1.00469 6.575271 -2.458615
2012-04-19 08:36:33 51°26.165 2°48.557 15.8446 1.030648 6.758333 -2.458615
2012-04-19 08:36:38 51°26.165 2°48.557 15.8444 1.030648 6.758333 -2.458615
2012-04-19 08:36:43 51°26.166 2°48.558 15.8465 1.033738 6.779654 -2.458615
2012-04-19 08:36:48 51°26.166 2°48.558 15.8477 1.00366 6.566261 -2.458615
2012-04-19 08:36:53 51°26.166 2°48.558 15.8525 0.996141 6.513049 -2.458615
2012-04-19 08:36:58 51°26.166 2°48.558 15.8448 0.967198 6.309776 -2.458615
2012-04-19 08:37:03 51°26.166 2°48.558 15.8477 0.973687 6.35717 -2.458615
2012-04-19 08:37:08 51°26.166 2°48.558 15.8499 0.973687 6.35717 -2.458615
2012-04-19 08:37:13 51°26.166 2°48.558 15.8492 0.985634 6.441685 -2.458615
2012-04-19 08:37:18 51°26.167 2°48.558 15.8499 0.909214 5.90509 -2.458615
2012-04-19 08:37:23 51°26.167 2°48.559 15.844 1.014991 6.646267 -2.458615
2012-04-19 08:37:27 51°26.167 2°48.559 15.8481 1.011282 6.619233 -2.458615
2012-04-19 08:37:33 51°26.168 2°48.559 15.8451 0.99099 6.475932 -2.458615
2012-04-19 08:37:38 51°26.168 2°48.56 15.8503 0.99099 6.475932 -2.458615
2012-04-19 08:37:43 51°26.168 2°48.56 15.853 1.014475 6.641118 -2.458615
2012-04-19 08:37:48 51°26.168 2°48.56 15.852 1.02045 6.68326 -2.458615
2012-04-19 08:37:53 51°26.168 2°48.561 15.8547 1.000879 6.545297 -2.458615
2012-04-19 08:37:58 51°26.168 2°48.561 15.8559 1.020656 6.684586 -2.458615
2012-04-19 08:38:03 51°26.169 2°48.561 15.855 0.971627 6.339314 -2.458615
2012-04-19 08:38:08 51°26.169 2°48.562 15.8581 0.971627 6.339314 -2.458615
2012-04-19 08:38:13 51°26.169 2°48.562 15.8543 0.982029 6.412414 -2.458615
2012-04-19 08:38:18 51°26.17 2°48.562 15.8594 1.000673 6.543348 -2.458615
2012-04-19 08:38:23 51°26.17 2°48.563 15.8576 0.9707 6.332443 -2.458615
2012-04-19 08:38:28 51°26.17 2°48.563 15.859 0.996244 6.511667 -2.458615
2012-04-19 08:38:33 51°26.17 2°48.564 15.8595 1.026424 6.724401 -2.458615
2012-04-19 08:38:38 51°26.17 2°48.564 15.8598 1.026424 6.724401 -2.458615
2012-04-19 08:38:43 51°26.171 2°48.565 15.8584 1.005205 6.575021 -2.458615
2012-04-19 08:38:48 51°26.171 2°48.565 15.8586 0.985016 6.433416 -2.458615
2012-04-19 08:38:53 51°26.171 2°48.566 15.8616 0.973274 6.351373 -2.458615
2012-04-19 08:38:58 51°26.171 2°48.566 15.8613 0.993463 6.493824 -2.458615
2012-04-19 08:39:03 51°26.172 2°48.567 15.8656 0.993875 6.497095 -2.458615
2012-04-19 08:39:08 51°26.172 2°48.567 15.8661 0.993875 6.497095 -2.458615
2012-04-19 08:39:13 51°26.173 2°48.567 15.866 0.986767 6.447203 -2.458615
2012-04-19 08:39:18 51°26.173 2°48.568 15.8637 0.964417 6.29025 -2.458615
2012-04-19 08:39:23 51°26.173 2°48.569 15.8616 0.959988 6.259284 -2.458615
2012-04-19 08:39:28 51°26.174 2°48.569 15.8647 0.982647 6.418468 -2.458615
2012-04-19 08:39:33 51°26.174 2°48.57 15.8742 0.977085 6.379728 -2.458615
2012-04-19 08:39:38 51°26.174 2°48.57 15.8769 0.977085 6.379728 -2.458615
2012-04-19 08:39:43 51°26.174 2°48.571 15.8727 0.994287 6.501356 -2.458615
2012-04-19 08:39:47 51°26.175 2°48.571 15.8611 0.99027 6.473816 -2.458615
2012-04-19 08:39:53 51°26.175 2°48.572 15.8626 0.992433 6.49028 -2.458615
2012-04-19 08:39:58 51°26.175 2°48.572 15.8625 0.999334 6.539518 -2.458615
2012-04-19 08:40:03 51°26.175 2°48.572 15.8665 0.982545 6.422267 -2.458615
2012-04-19 08:40:07 51°26.176 2°48.573 15.8637 0.982545 6.422267 -2.458615
2012-04-19 08:40:13 51°26.176 2°48.573 15.8678 0.969258 6.329663 -2.458615
2012-04-19 08:40:18 51°26.176 2°48.574 15.867 1.001085 6.553857 -2.458615
2012-04-19 08:40:23 51°26.176 2°48.575 15.8614 0.985532 6.443659 -2.458615
2012-04-19 08:40:28 51°26.177 2°48.575 15.8693 0.997686 6.529272 -2.458615
2012-04-19 08:40:33 51°26.177 2°48.575 15.8731 0.979352 6.400043 -2.458615
2012-04-19 08:40:38 51°26.177 2°48.576 15.8711 0.979352 6.400043 -2.458615
2012-04-19 08:40:43 51°26.177 2°48.576 15.8738 1.011385 6.626013 -2.458615
2012-04-19 08:40:48 51°26.178 2°48.577 15.8667 1.011282 6.625665 -2.458615
2012-04-19 08:40:53 51°26.178 2°48.578 15.8717 0.968743 6.326164 -2.458615
2012-04-19 08:40:58 51°26.178 2°48.578 15.876 0.986562 6.451402 -2.458615
2012-04-19 08:41:03 51°26.178 2°48.579 15.8741 0.966374 6.309273 -2.458615
2012-04-19 08:41:08 51°26.179 2°48.579 15.875 0.966374 6.309273 -2.458615
2012-04-19 08:41:13 51°26.179 2°48.58 15.8708 0.961533 6.275023 -2.458615
2012-04-19 08:41:18 51°26.179 2°48.581 15.877 0.974408 6.365146 -2.458615
2012-04-19 08:41:23 51°26.18 2°48.582 15.8773 0.999437 6.541739 -2.458615
2012-04-19 08:41:28 51°26.18 2°48.582 15.8748 1.005411 6.583362 -2.458615
2012-04-19 08:41:33 51°26.18 2°48.583 15.8754 1.007368 6.597166 -2.458615
2012-04-19 08:41:38 51°26.181 2°48.584 15.8768 1.007368 6.597166 -2.458615
2012-04-19 08:41:43 51°26.181 2°48.585 15.8814 0.990785 6.480279 -2.458615
2012-04-19 08:41:48 51°26.181 2°48.585 15.8835 0.98203 6.418887 -2.458615
2012-04-19 08:41:53 51°26.181 2°48.586 15.8846 0.996038 6.518403 -2.458615
2012-04-19 08:41:58 51°26.182 2°48.587 15.8859 0.98306 6.427851 -2.458615
2012-04-19 08:42:03 51°26.182 2°48.588 15.883 0.978322 6.395478 -2.458615
2012-04-19 08:42:08 51°26.182 2°48.588 15.8866 0.978322 6.395478 -2.458615
2012-04-19 08:42:13 51°26.182 2°48.589 15.8833 1.036211 6.804773 -2.458615
2012-04-19 08:42:18 51°26.182 2°48.589 15.8816 1.010664 6.624459 -2.458615
2012-04-19 08:42:23 51°26.183 2°48.59 15.8832 0.988313 6.466566 -2.458615
2012-04-19 08:42:28 51°26.183 2°48.591 15.8852 0.99542 6.516531 -2.458615
2012-04-19 08:42:33 51°26.183 2°48.591 15.8865 1.024982 6.725614 -2.458615
2012-04-19 08:42:38 51°26.183 2°48.592 15.8802 1.024982 6.725614 -2.458615
2012-04-19 08:42:43 51°26.183 2°48.593 15.8868 1.03961 6.829743 -2.458615
2012-04-19 08:42:47 51°26.183 2°48.593 15.8807 0.962872 6.288381 -2.458615
2012-04-19 08:42:53 51°26.183 2°48.594 15.8872 1.0016 6.561239 -2.458615
2012-04-19 08:42:58 51°26.184 2°48.594 15.8895 0.984708 6.44154 -2.458615
2012-04-19 08:43:03 51°26.184 2°48.595 15.8908 0.999437 6.544857 -2.458615
2012-04-19 08:43:08 51°26.184 2°48.596 15.8924 0.999437 6.544857 -2.458615
2012-04-19 08:43:13 51°26.184 2°48.596 15.8898 1.005514 6.587603 -2.458615
2012-04-19 08:43:18 51°26.184 2°48.597 15.8886 0.998098 6.535414 -2.458615
2012-04-19 08:43:23 51°26.184 2°48.597 15.887 1.002321 6.565325 -2.458615
2012-04-19 08:43:28 51°26.185 2°48.598 15.8858 1.034356 6.792171 -2.458615
2012-04-19 08:43:33 51°26.185 2°48.598 15.8964 1.010973 6.627399 -2.458615
2012-04-19 08:43:38 51°26.186 2°48.599 15.8942 1.010973 6.627399 -2.458615
2012-04-19 08:43:43 51°26.186 2°48.599 15.8969 1.036108 6.805471 -2.458615
2012-04-19 08:43:48 51°26.186 2°48.599 15.8948 0.999643 6.548182 -2.458615
2012-04-19 08:43:53 51°26.186 2°48.599 15.9014 0.998819 6.542743 -2.458615
2012-04-19 08:43:58 51°26.186 2°48.6 15.9029 1.014476 6.653529 -2.458615
2012-04-19 08:44:03 51°26.186 2°48.6 15.907 0.982957 6.431538 -2.458615
2012-04-19 08:44:08 51°26.187 2°48.6 15.9109 0.982957 6.431538 -2.458615
2012-04-19 08:44:13 51°26.187 2°48.6 15.9045 0.997171 6.53199 -2.458615
2012-04-19 08:44:18 51°26.187 2°48.601 15.9068 0.997892 6.537326 -2.458615
2012-04-19 08:44:23 51°26.187 2°48.601 15.8996 0.978013 6.397205 -2.458615
2012-04-19 08:44:27 51°26.188 2°48.601 15.9052 0.970185 6.342343 -2.458615
2012-04-19 08:44:33 51°26.188 2°48.601 15.9059 0.962357 6.287638 -2.458615
2012-04-19 08:44:38 51°26.188 2°48.602 15.9081 0.962357 6.287638 -2.458615
2012-04-19 08:44:43 51°26.189 2°48.602 15.9069 1.011592 6.63518 -2.458615
2012-04-19 08:44:47 51°26.189 2°48.602 15.9055 0.998716 6.544139 -2.458615
2012-04-19 08:44:53 51°26.189 2°48.603 15.899 0.979867 6.410873 -2.458615
2012-04-19 08:44:58 51°26.19 2°48.603 15.8982 0.992742 6.501496 -2.458615
2012-04-19 08:45:03 51°26.19 2°48.603 15.908 0.987901 6.467239 -2.458615
2012-04-19 08:45:08 51°26.19 2°48.603 15.907 0.987901 6.467239 -2.458615
2012-04-19 08:45:13 51°26.191 2°48.604 15.9084 1.012313 6.639641 -2.458615
2012-04-19 08:45:18 51°26.191 2°48.604 15.9103 1.014373 6.654578 -2.458615
2012-04-19 08:45:23 51°26.191 2°48.604 15.907 0.99851 6.54281 -2.458615
2012-04-19 08:45:28 51°26.192 2°48.605 15.9028 1.002939 6.574197 -2.458615
2012-04-19 08:45:33 51°26.192 2°48.605 15.9037 0.990167 6.484451 -2.458615
2012-04-19 08:45:38 51°26.193 2°48.605 15.9116 0.990167 6.484451 -2.458615
2012-04-19 08:45:43 51°26.193 2°48.605 15.9094 0.978013 6.398791 -2.458615
2012-04-19 08:45:48 51°26.193 2°48.605 15.9078 0.997171 6.53386 -2.458615
2012-04-19 08:45:53 51°26.193 2°48.606 15.9071 0.992124 6.498377 -2.458615
2012-04-19 08:45:58 51°26.194 2°48.606 15.9064 0.995832 6.524785 -2.458615
2012-04-19 08:46:03 51°26.194 2°48.606 15.9163 0.967713 6.326639 -2.458615
2012-04-19 08:46:08 51°26.195 2°48.606 15.9154 0.967713 6.326639 -2.458615
2012-04-19 08:46:13 51°26.195 2°48.606 15.9201 0.953191 6.224749 -2.458615
2012-04-19 08:46:18 51°26.196 2°48.606 15.9182 1.041258 6.846244 -2.458615
2012-04-19 08:46:23 51°26.196 2°48.607 15.9064 1.001806 6.56695 -2.458615
2012-04-19 08:46:28 51°26.197 2°48.607 15.9153 0.986253 6.456855 -2.458615
2012-04-19 08:46:33 51°26.197 2°48.607 15.9217 0.98306 6.433982 -2.458615
2012-04-19 08:46:38 51°26.198 2°48.607 15.9223 0.98306 6.433982 -2.458615
2012-04-19 08:46:43 51°26.198 2°48.608 15.9243 1.012931 6.644515 -2.458615
2012-04-19 08:46:47 51°26.198 2°48.608 15.9233 0.979558 6.409063 -2.458615
2012-04-19 08:46:53 51°26.199 2°48.608 15.9258 0.919616 5.988032 -2.458615
2012-04-19 08:46:58 51°26.199 2°48.608 15.9214 0.98512 6.448253 -2.458615
2012-04-19 08:47:03 51°26.2 2°48.608 15.9155 1.007986 6.609586 -2.458615
2012-04-19 08:47:08 51°26.2 2°48.609 15.9177 1.007986 6.609586 -2.458615
2012-04-19 08:47:13 51°26.201 2°48.609 15.9144 0.94732 6.181969 -2.458615
2012-04-19 08:47:18 51°26.201 2°48.609 15.9139 0.95731 6.252038 -2.458615
2012-04-19 08:47:23 51°26.202 2°48.61 15.9034 0.951337 6.209707 -2.458615
2012-04-19 08:47:28 51°26.203 2°48.61 15.9072 0.986974 6.460335 -2.458615
2012-04-19 08:47:33 51°26.203 2°48.611 15.9267 1.007162 6.602884 -2.458615
2012-04-19 08:47:38 51°26.204 2°48.611 15.9294 1.007162 6.602884 -2.458615
2012-04-19 08:47:43 51°26.204 2°48.612 15.9191 0.97997 6.411599 -2.458615
2012-04-19 08:47:48 51°26.205 2°48.612 15.9239 0.961018 6.278343 -2.458615
2012-04-19 08:47:53 51°26.205 2°48.613 15.9164 0.996656 6.529478 -2.458615
2012-04-19 08:47:58 51°26.206 2°48.614 15.9129 1.014991 6.659073 -2.458615
2012-04-19 08:48:03 51°26.207 2°48.614 15.9182 0.98512 6.448253 -2.458615
2012-04-19 08:48:08 51°26.207 2°48.615 15.9239 0.98512 6.448253 -2.458615
2012-04-19 08:48:13 51°26.208 2°48.615 15.9292 0.976365 6.386088 -2.458615
2012-04-19 08:48:18 51°26.208 2°48.615 15.9337 0.974305 6.371341 -2.458615
2012-04-19 08:48:23 51°26.208 2°48.616 15.9335 0.966477 6.316134 -2.458615
2012-04-19 08:48:28 51°26.209 2°48.617 15.9407 0.976777 6.388745 -2.458615
2012-04-19 08:48:33 51°26.21 2°48.617 15.9317 0.983884 6.438928 -2.458615
2012-04-19 08:48:38 51°26.21 2°48.618 15.9286 0.983884 6.438928 -2.458615
2012-04-19 08:48:43 51°26.21 2°48.618 15.9229 0.993154 6.504401 -2.458615
2012-04-19 08:48:48 51°26.211 2°48.619 15.9286 0.971318 6.350922 -2.458615
2012-04-19 08:48:53 51°26.211 2°48.62 15.92 0.985429 6.450923 -2.458615
2012-04-19 08:48:58 51°26.211 2°48.62 15.9319 0.989137 6.478053 -2.458615
2012-04-19 08:49:03 51°26.212 2°48.621 15.9349 1.006441 6.601823 -2.458615
2012-04-19 08:49:07 51°26.213 2°48.621 15.9308 1.006441 6.601823 -2.458615
2012-04-19 08:49:13 51°26.213 2°48.622 15.946 1.003351 6.580496 -2.458615
2012-04-19 08:49:18 51°26.214 2°48.623 15.9565 1.00366 6.583308 -2.458615
2012-04-19 08:49:23 51°26.214 2°48.623 15.9528 0.970082 6.346824 -2.458615
2012-04-19 08:49:27 51°26.215 2°48.624 15.9299 0.959267 6.271296 -2.458615
2012-04-19 08:49:33 51°26.215 2°48.625 15.9281 0.994596 6.520668 -2.458615
2012-04-19 08:49:38 51°26.216 2°48.625 15.9258 0.994596 6.520668 -2.458615
2012-04-19 08:49:43 51°26.216 2°48.626 15.9369 0.99954 6.555958 -2.458615
2012-04-19 08:49:48 51°26.216 2°48.627 15.9399 1.001394 6.569433 -2.458615
2012-04-19 08:49:53 51°26.217 2°48.628 15.9458 0.991094 6.497064 -2.458615
2012-04-19 08:49:58 51°26.217 2°48.629 15.9343 0.97276 6.368119 -2.458615
2012-04-19 08:50:03 51°26.218 2°48.63 15.9331 0.978013 6.405636 -2.458615
2012-04-19 08:50:08 51°26.218 2°48.63 15.9308 0.978013 6.405636 -2.458615
2012-04-19 08:50:13 51°26.218 2°48.631 15.9223 0.968228 6.336914 -2.458615
2012-04-19 08:50:18 51°26.219 2°48.632 15.9361 0.978734 6.411333 -2.458615
2012-04-19 08:50:23 51°26.219 2°48.633 15.933 0.981721 6.432402 -2.458615
2012-04-19 08:50:28 51°26.219 2°48.633 15.9197 1.006853 6.610035 -2.458615
2012-04-19 08:50:33 51°26.219 2°48.634 15.9194 1.022201 6.719025 -2.458615
2012-04-19 08:50:38 51°26.22 2°48.635 15.9382 1.022201 6.719025 -2.458615
2012-04-19 08:50:43 51°26.22 2°48.635 15.9359 0.99954 6.559091 -2.458615
2012-04-19 08:50:48 51°26.22 2°48.636 15.9387 0.985944 6.463187 -2.458615
2012-04-19 08:50:53 51°26.22 2°48.636 15.9398 0.991609 6.503433 -2.458615
2012-04-19 08:50:58 51°26.221 2°48.637 15.9469 0.958031 6.266669 -2.458615
2012-04-19 08:51:03 51°26.221 2°48.638 15.9439 0.973069 6.372975 -2.458615
2012-04-19 08:51:07 51°26.222 2°48.638 15.9441 0.973069 6.372975 -2.458615
2012-04-19 08:51:13 51°26.222 2°48.639 15.9464 0.981721 6.433754 -2.458615
2012-04-19 08:51:18 51°26.223 2°48.64 15.9435 0.985429 6.460046 -2.458615
2012-04-19 08:51:23 51°26.223 2°48.64 15.9504 0.994802 6.526361 -2.458615
2012-04-19 08:51:28 51°26.224 2°48.641 15.9556 0.973893 6.378784 -2.458615
2012-04-19 08:51:33 51°26.224 2°48.642 15.9551 1.004381 6.594068 -2.458615
2012-04-19 08:51:38 51°26.224 2°48.643 15.9447 1.004381 6.594068 -2.458615
2012-04-19 08:51:43 51°26.224 2°48.643 15.938 0.978219 6.409293 -2.458615
2012-04-19 08:51:48 51°26.225 2°48.644 15.958 0.984811 6.455437 -2.458615
2012-04-19 08:51:53 51°26.225 2°48.644 15.9614 0.97894 6.413766 -2.458615
2012-04-19 08:51:58 51°26.226 2°48.645 15.961 0.986974 6.470458 -2.458615
2012-04-19 08:52:03 51°26.226 2°48.646 15.9348 1.003969 6.590399 -2.458615
2012-04-19 08:52:08 51°26.226 2°48.647 15.934 1.003969 6.590399 -2.458615
2012-04-19 08:52:13 51°26.227 2°48.648 15.9402 0.935373 6.107095 -2.458615
2012-04-19 08:52:18 51°26.227 2°48.648 15.9372 0.943818 6.166324 -2.458615
2012-04-19 08:52:23 51°26.228 2°48.649 15.9484 0.982133 6.435677 -2.458615
2012-04-19 08:52:28 51°26.228 2°48.65 15.9475 0.972245 6.365462 -2.458615
2012-04-19 08:52:33 51°26.228 2°48.651 15.955 0.97482 6.383491 -2.458615
2012-04-19 08:52:38 51°26.228 2°48.651 15.9576 0.97482 6.383491 -2.458615
2012-04-19 08:52:43 51°26.228 2°48.652 15.9617 0.977292 6.400919 -2.458615
2012-04-19 08:52:48 51°26.229 2°48.653 15.9555 1.006956 6.610384 -2.458615
2012-04-19 08:52:53 51°26.229 2°48.654 15.9521 0.982133 6.435308 -2.458615
2012-04-19 08:52:58 51°26.229 2°48.655 15.9384 0.982854 6.440395 -2.458615
2012-04-19 08:53:03 51°26.23 2°48.655 15.9397 1.020141 6.704181 -2.458615
2012-04-19 08:53:08 51°26.23 2°48.656 15.9471 1.020141 6.704181 -2.458615
2012-04-19 08:53:13 51°26.23 2°48.657 15.9578 0.97791 6.406012 -2.458615
2012-04-19 08:53:18 51°26.231 2°48.657 15.9702 0.977601 6.404322 -2.458615
2012-04-19 08:53:23 51°26.231 2°48.658 15.9711 0.960606 6.284678 -2.458615
2012-04-19 08:53:27 51°26.231 2°48.659 15.9585 0.969876 6.350223 -2.458615
2012-04-19 08:53:33 51°26.232 2°48.66 15.9591 0.986562 6.46792 -2.458615
2012-04-19 08:53:38 51°26.232 2°48.66 15.9395 0.986562 6.46792 -2.458615
2012-04-19 08:53:43 51°26.233 2°48.661 15.95 0.976365 6.396094 -2.458615
2012-04-19 08:53:48 51°26.233 2°48.662 15.9604 0.973996 6.379876 -2.458615
2012-04-19 08:53:53 51°26.234 2°48.663 15.9613 0.961327 6.290957 -2.458615
2012-04-19 08:53:58 51°26.234 2°48.663 15.9615 0.979352 6.41839 -2.458615
2012-04-19 08:54:03 51°26.234 2°48.664 15.9773 1.006339 6.609425 -2.458615
2012-04-19 08:54:08 51°26.235 2°48.665 15.9725 1.006339 6.609425 -2.458615
2012-04-19 08:54:13 51°26.235 2°48.666 15.9713 1.019729 6.705109 -2.458615
2012-04-19 08:54:18 51°26.236 2°48.666 15.9658 0.98821 6.482528 -2.458615
2012-04-19 08:54:23 51°26.236 2°48.667 15.9456 0.984708 6.458043 -2.458615
2012-04-19 08:54:28 51°26.236 2°48.668 15.9569 1.013961 6.66464 -2.458615
2012-04-19 08:54:33 51°26.237 2°48.669 15.9584 0.995832 6.537012 -2.458615
2012-04-19 08:54:38 51°26.237 2°48.669 15.9587 0.995832 6.537012 -2.458615
2012-04-19 08:54:43 51°26.237 2°48.67 15.9626 0.993051 6.516981 -2.458615
2012-04-19 08:54:48 51°26.238 2°48.67 15.9585 0.984193 6.45453 -2.458615
2012-04-19 08:54:53 51°26.238 2°48.671 15.9669 1.010047 6.638454 -2.458615
2012-04-19 08:54:58 51°26.239 2°48.672 15.9825 1.001703 6.580417 -2.458615
2012-04-19 08:55:03 51°26.239 2°48.672 15.9797 0.978425 6.416265 -2.458615
2012-04-19 08:55:08 51°26.24 2°48.673 15.9763 0.978425 6.416265 -2.458615
2012-04-19 08:55:13 51°26.241 2°48.674 15.9781 0.957311 6.266863 -2.458615
2012-04-19 08:55:18 51°26.241 2°48.675 15.9615 0.94526 6.181776 -2.458615
2012-04-19 08:55:23 51°26.241 2°48.675 15.9709 0.966168 6.32857 -2.458615
2012-04-19 08:55:28 51°26.242 2°48.676 15.9742 0.972245 6.371062 -2.458615
2012-04-19 08:55:33 51°26.242 2°48.677 15.9602 1.003351 6.590187 -2.458615
2012-04-19 08:55:38 51°26.243 2°48.678 15.9868 1.003351 6.590187 -2.458615
2012-04-19 08:55:43 51°26.243 2°48.678 15.9547 0.992536 6.513217 -2.458615
2012-04-19 08:55:48 51°26.244 2°48.679 15.9645 0.966271 6.327601 -2.458615
2012-04-19 08:55:54 51°26.244 2°48.68 15.9725 0.964417 6.314535 -2.458615
2012-04-19 08:55:58 51°26.245 2°48.681 15.9755 0.980073 6.425197 -2.458615
2012-04-19 08:56:03 51°26.245 2°48.682 15.9755 0.969567 6.351323 -2.458615
2012-04-19 08:56:08 51°26.246 2°48.682 15.9748 0.969567 6.351323 -2.458615
2012-04-19 08:56:13 51°26.247 2°48.683 15.9666 0.970803 6.360647 -2.458615
2012-04-19 08:56:18 51°26.247 2°48.684 15.9794 0.99027 6.49907 -2.458615
2012-04-19 08:56:23 51°26.248 2°48.685 15.9729 0.885631 5.763728 -2.458615
2012-04-19 08:56:28 51°26.248 2°48.686 15.968 1.005515 6.607512 -2.458615
2012-04-19 08:56:33 51°26.249 2°48.687 15.9916 0.991506 6.507556 -2.458615
2012-04-19 08:56:39 51°26.249 2°48.688 15.9832 0.991506 6.507556 -2.458615
2012-04-19 08:56:43 51°26.25 2°48.689 15.981 1.018699 6.699478 -2.458615
2012-04-19 08:56:48 51°26.25 2°48.689 15.9771 0.964108 6.313323 -2.458615
2012-04-19 08:56:53 51°26.251 2°48.69 15.9871 0.99954 6.563105 -2.458615
2012-04-19 08:56:58 51°26.251 2°48.691 15.9879 0.969361 6.349992 -2.458615
2012-04-19 08:57:03 51°26.251 2°48.692 15.9968 0.986768 6.473086 -2.458615
2012-04-19 08:57:08 51°26.252 2°48.693 15.9946 0.986768 6.473086 -2.458615
2012-04-19 08:57:13 51°26.252 2°48.694 15.9984 1.006545 6.613032 -2.458615
2012-04-19 08:57:18 51°26.253 2°48.695 15.992 0.984605 6.458056 -2.458615
2012-04-19 08:57:23 51°26.253 2°48.696 15.9847 0.981824 6.438542 -2.458615
2012-04-19 08:57:28 51°26.253 2°48.696 15.9855 0.979455 6.421817 -2.458615
2012-04-19 08:57:33 51°26.254 2°48.698 15.9886 0.955251 6.251276 -2.458615
2012-04-19 08:57:38 51°26.254 2°48.698 16.0067 0.955251 6.251276 -2.458615
2012-04-19 08:57:43 51°26.255 2°48.699 16.0132 1.018287 6.697328 -2.458615
2012-04-19 08:57:47 51°26.255 2°48.7 15.9861 0.96349 6.311019 -2.458615
2012-04-19 08:57:53 51°26.256 2°48.701 15.9912 0.964417 6.317796 -2.458615
2012-04-19 08:57:58 51°26.256 2°48.702 15.9988 0.967816 6.341524 -2.458615
2012-04-19 08:58:03 51°26.257 2°48.703 15.9977 0.96864 6.3477 -2.458615
2012-04-19 08:58:07 51°26.257 2°48.704 15.9943 0.96864 6.3477 -2.458615
2012-04-19 08:58:13 51°26.258 2°48.705 15.9919 0.995317 6.536998 -2.458615
2012-04-19 08:58:18 51°26.258 2°48.707 15.9847 0.973378 6.383084 -2.458615
2012-04-19 08:58:23 51°26.259 2°48.708 15.9989 0.98512 6.466765 -2.458615
2012-04-19 08:58:28 51°26.259 2°48.709 15.9873 0.992639 6.521054 -2.458615
2012-04-19 08:58:33 51°26.26 2°48.71 15.9966 0.933622 6.105181 -2.458615
2012-04-19 08:58:38 51°26.26 2°48.711 15.9832 0.933622 6.105181 -2.458615
2012-04-19 08:58:43 51°26.261 2°48.712 15.9895 0.94835 6.209224 -2.458615
2012-04-19 08:58:48 51°26.262 2°48.713 15.9973 0.96555 6.329419 -2.458615
2012-04-19 08:58:53 51°26.263 2°48.714 16.0059 0.959371 6.285105 -2.458615
2012-04-19 08:58:58 51°26.263 2°48.715 16.0204 0.951028 6.225947 -2.458615
2012-04-19 08:59:03 51°26.264 2°48.716 16.0108 0.955148 6.255096 -2.458615
2012-04-19 08:59:08 51°26.264 2°48.717 16.005 0.955148 6.255096 -2.458615
2012-04-19 08:59:13 51°26.265 2°48.718 16.0016 0.979558 6.427709 -2.458615
2012-04-19 08:59:18 51°26.265 2°48.719 15.996 0.979455 6.427473 -2.458615
2012-04-19 08:59:23 51°26.266 2°48.72 16.0038 0.98821 6.489479 -2.458615
2012-04-19 08:59:28 51°26.267 2°48.721 15.9962 0.974305 6.391219 -2.458615
2012-04-19 08:59:33 51°26.267 2°48.722 16.0101 1.01221 6.659631 -2.458615
2012-04-19 08:59:38 51°26.268 2°48.723 16.0052 1.01221 6.659631 -2.458615
2012-04-19 08:59:43 51°26.268 2°48.724 15.9961 0.96967 6.35886 -2.458615
2012-04-19 08:59:48 51°26.268 2°48.725 16.0129 1.013858 6.671185 -2.458615
2012-04-19 08:59:53 51°26.269 2°48.726 16.0243 1.003249 6.595893 -2.458615
2012-04-19 08:59:58 51°26.27 2°48.728 16.0155 0.981927 6.44494 -2.458615
2012-04-19 09:00:03 51°26.27 2°48.729 16.0251 0.957311 6.271062 -2.458615
2012-04-19 09:00:08 51°26.271 2°48.729 16.0161 0.957311 6.271062 -2.458615
2012-04-19 09:00:13 51°26.271 2°48.731 15.991 0.95968 6.288247 -2.458615
2012-04-19 09:00:18 51°26.271 2°48.732 15.9993 0.971833 6.374619 -2.458615
2012-04-19 09:00:23 51°26.272 2°48.733 16.0085 0.967095 6.341778 -2.458615
2012-04-19 09:00:27 51°26.272 2°48.734 16.0245 0.984708 6.466949 -2.458615
2012-04-19 09:00:33 51°26.273 2°48.735 16.0294 0.991609 6.516388 -2.458615
2012-04-19 09:00:38 51°26.273 2°48.737 16.0109 0.991609 6.516388 -2.458615
2012-04-19 09:00:43 51°26.273 2°48.738 16.0166 0.99336 6.529406 -2.458615
2012-04-19 09:00:48 51°26.274 2°48.739 16.0178 0.985017 6.470497 -2.458615
2012-04-19 09:00:53 51°26.275 2°48.74 16.024 0.95865 6.284233 -2.458615
2012-04-19 09:00:58 51°26.275 2°48.741 16.0178 0.971009 6.371607 -2.458615
2012-04-19 09:01:03 51°26.276 2°48.742 16.0217 0.955251 6.260377 -2.458615
2012-04-19 09:01:08 51°26.276 2°48.744 16.0062 0.955251 6.260377 -2.458615
2012-04-19 09:01:13 51°26.276 2°48.745 16.0195 0.983781 6.462003 -2.458615
2012-04-19 09:01:18 51°26.277 2°48.746 16.02 0.981721 6.447806 -2.458615
2012-04-19 09:01:23 51°26.277 2°48.747 16.0212 0.995523 6.545973 -2.458615
2012-04-19 09:01:28 51°26.278 2°48.748 16.0228 0.990991 6.514262 -2.458615
2012-04-19 09:01:33 51°26.278 2°48.749 16.0175 0.985944 6.478792 -2.458615
2012-04-19 09:01:38 51°26.279 2°48.75 16.0142 0.985944 6.478792 -2.458615
2012-04-19 09:01:43 51°26.279 2°48.751 16.0306 1.019421 6.716153 -2.458615
2012-04-19 09:01:48 51°26.28 2°48.753 16.0292 0.97997 6.436535 -2.458615
2012-04-19 09:01:53 51°26.28 2°48.754 16.0325 0.972451 6.383261 -2.458615
2012-04-19 09:01:58 51°26.281 2°48.755 16.0471 0.986459 6.481567 -2.458615
2012-04-19 09:02:03 51°26.281 2°48.755 16.0401 0.980794 6.441498 -2.458615
2012-04-19 09:02:08 51°26.282 2°48.757 16.0295 0.980794 6.441498 -2.458615
2012-04-19 09:02:13 51°26.282 2°48.758 16.0358 1.021172 6.727809 -2.458615
2012-04-19 09:02:18 51°26.283 2°48.759 16.0285 1.008502 6.637677 -2.458615
2012-04-19 09:02:23 51°26.283 2°48.76 16.0316 0.958753 6.285802 -2.458615
2012-04-19 09:02:27 51°26.284 2°48.76 16.0289 0.972966 6.386288 -2.458615
2012-04-19 09:02:33 51°26.284 2°48.762 16.0242 0.95453 6.256131 -2.458615
2012-04-19 09:02:38 51°26.285 2°48.763 16.0279 0.95453 6.256131 -2.458615
2012-04-19 09:02:43 51°26.285 2°48.764 16.0324 1.001189 6.5861 -2.458615
2012-04-19 09:02:48 51°26.286 2°48.765 16.0355 0.986665 6.483521 -2.458615
2012-04-19 09:02:54 51°26.287 2°48.766 16.0457 0.981103 6.444301 -2.458615
2012-04-19 09:02:58 51°26.287 2°48.767 16.0333 0.959989 6.295127 -2.458615
2012-04-19 09:03:03 51°26.288 2°48.767 16.0223 0.976365 6.410678 -2.458615
2012-04-19 09:03:08 51°26.288 2°48.768 16.0255 0.976365 6.410678 -2.458615
2012-04-19 09:03:13 51°26.289 2°48.769 16.0308 0.990682 6.512199 -2.458615
2012-04-19 09:03:18 51°26.289 2°48.771 16.0424 0.964109 6.324695 -2.458615
2012-04-19 09:03:23 51°26.29 2°48.771 16.0189 0.979867 6.43593 -2.458615
2012-04-19 09:03:28 51°26.29 2°48.773 16.0239 0.983266 6.459723 -2.458615
2012-04-19 09:03:33 51°26.291 2°48.774 16.0292 0.978116 6.423179 -2.458615
2012-04-19 09:03:38 51°26.292 2°48.774 16.0306 0.978116 6.423179 -2.458615
2012-04-19 09:03:43 51°26.292 2°48.776 16.0204 0.977498 6.418687 -2.458615
2012-04-19 09:03:48 51°26.292 2°48.777 16.0238 0.99985 6.577118 -2.458615
2012-04-19 09:03:53 51°26.293 2°48.778 16.0286 0.983163 6.459366 -2.458615
2012-04-19 09:03:58 51°26.293 2°48.779 16.0244 0.987386 6.489991 -2.458615
2012-04-19 09:04:03 51°26.294 2°48.78 16.0269 1.007369 6.632315 -2.458615
2012-04-19 09:04:08 51°26.295 2°48.781 16.029 1.007369 6.632315 -2.458615
2012-04-19 09:04:13 51°26.296 2°48.782 16.054 1.012004 6.666471 -2.458615
2012-04-19 09:04:18 51°26.296 2°48.783 16.0459 0.982236 6.455902 -2.458615
2012-04-19 09:04:23 51°26.296 2°48.784 16.047 0.943716 6.182852 -2.458615
2012-04-19 09:04:28 51°26.296 2°48.785 16.0359 0.951749 6.23867 -2.458615
2012-04-19 09:04:33 51°26.297 2°48.786 16.0354 0.977807 6.422349 -2.458615
2012-04-19 09:04:38 51°26.298 2°48.788 16.0444 0.977807 6.422349 -2.458615
2012-04-19 09:04:43 51°26.298 2°48.789 16.0531 0.964932 6.33112 -2.458615
2012-04-19 09:04:48 51°26.299 2°48.79 16.044 0.972451 6.38424 -2.458615
2012-04-19 09:04:53 51°26.3 2°48.792 16.0449 0.954942 6.260596 -2.458615
2012-04-19 09:04:58 51°26.3 2°48.793 16.0598 0.972039 6.381328 -2.458615
2012-04-19 09:05:03 51°26.301 2°48.794 16.0529 0.965653 6.335969 -2.458615
2012-04-19 09:05:08 51°26.301 2°48.795 16.0564 0.965653 6.335969 -2.458615
2012-04-19 09:05:13 51°26.302 2°48.797 16.0608 0.949998 6.225485 -2.458615
2012-04-19 09:05:18 51°26.303 2°48.798 16.0775 0.9535 6.250543 -2.458615
2012-04-19 09:05:23 51°26.304 2°48.8 16.0424 0.990064 6.510196 -2.458615
2012-04-19 09:05:27 51°26.304 2°48.801 16.0465 0.954736 6.261904 -2.458615
2012-04-19 09:05:33 51°26.304 2°48.803 16.0521 0.965757 6.341073 -2.458615
2012-04-19 09:05:38 51°26.305 2°48.804 16.0462 0.965757 6.341073 -2.458615
2012-04-19 09:05:43 51°26.305 2°48.805 16.0485 0.985017 6.478443 -2.458615
2012-04-19 09:05:48 51°26.306 2°48.807 16.045 1.002219 6.600104 -2.458615
2012-04-19 09:05:53 51°26.306 2°48.808 16.0569 0.99233 6.529499 -2.458615
2012-04-19 09:05:58 51°26.307 2°48.81 16.0557 0.980279 6.443537 -2.458615
2012-04-19 09:06:03 51°26.307 2°48.811 16.0615 0.976365 6.415474 -2.458615
2012-04-19 09:06:08 51°26.307 2°48.812 16.0625 0.976365 6.415474 -2.458615
2012-04-19 09:06:13 51°26.308 2°48.813 16.0568 0.992742 6.531416 -2.458615
2012-04-19 09:06:18 51°26.308 2°48.815 16.0635 0.94042 6.161394 -2.458615
2012-04-19 09:06:23 51°26.309 2°48.816 16.0665 0.951131 6.236702 -2.458615
2012-04-19 09:06:28 51°26.31 2°48.818 16.0659 0.955354 6.266266 -2.458615
2012-04-19 09:06:33 51°26.31 2°48.819 16.0505 0.971936 6.383293 -2.458615
2012-04-19 09:06:38 51°26.311 2°48.82 16.0541 0.971936 6.383293 -2.458615
2012-04-19 09:06:43 51°26.311 2°48.822 16.0685 0.903241 5.899333 -2.458615
2012-04-19 09:06:47 51°26.312 2°48.823 16.069 0.953397 6.252094 -2.458615
2012-04-19 09:06:53 51°26.312 2°48.825 16.072 0.962564 6.316814 -2.458615
2012-04-19 09:06:58 51°26.312 2°48.827 16.0512 0.997275 6.562525 -2.458615
2012-04-19 09:07:03 51°26.313 2°48.828 16.0671 0.99336 6.535042 -2.458615
2012-04-19 09:07:08 51°26.313 2°48.83 16.0707 0.99336 6.535042 -2.458615
2012-04-19 09:07:13 51°26.313 2°48.831 16.0593 0.987592 6.494438 -2.458615
2012-04-19 09:07:18 51°26.314 2°48.833 16.0736 0.994081 6.540903 -2.458615
2012-04-19 09:07:23 51°26.314 2°48.834 16.0738 1.007266 6.635274 -2.458615
2012-04-19 09:07:28 51°26.315 2°48.836 16.0737 0.927855 6.074272 -2.458615
2012-04-19 09:07:33 51°26.316 2°48.838 16.0743 0.960916 6.307594 -2.458615
2012-04-19 09:07:38 51°26.316 2°48.839 16.0639 0.960916 6.307594 -2.458615
2012-04-19 09:07:43 51°26.316 2°48.841 16.0745 0.991197 6.521596 -2.458615
2012-04-19 09:07:47 51°26.317 2°48.842 16.0678 0.972039 6.385736 -2.458615
2012-04-19 09:07:53 51°26.317 2°48.844 16.0695 0.966787 6.348718 -2.458615
2012-04-19 09:07:58 51°26.317 2°48.846 16.0597 0.999129 6.578442 -2.458615
2012-04-19 09:08:03 51°26.318 2°48.848 16.0663 1.012107 6.67181 -2.458615
2012-04-19 09:08:08 51°26.318 2°48.85 16.0741 1.012107 6.67181 -2.458615
2012-04-19 09:08:13 51°26.319 2°48.851 16.0743 0.930533 6.096173 -2.458615
2012-04-19 09:08:18 51°26.319 2°48.853 16.0592 0.934138 6.1217 -2.458615
2012-04-19 09:08:23 51°26.32 2°48.854 16.0788 0.972245 6.390503 -2.458615
2012-04-19 09:08:28 51°26.32 2°48.856 16.0821 0.962461 6.320814 -2.458615
2012-04-19 09:08:33 51°26.32 2°48.857 16.0822 0.94042 6.164942 -2.458615
2012-04-19 09:08:38 51°26.321 2°48.859 16.0879 0.94042 6.164942 -2.458615
2012-04-19 09:08:43 51°26.322 2°48.86 16.0772 1.00706 6.636742 -2.458615
2012-04-19 09:08:48 51°26.322 2°48.862 16.0925 0.991094 6.523996 -2.458615
2012-04-19 09:08:53 51°26.322 2°48.864 16.0991 0.955766 6.274108 -2.458615
2012-04-19 09:08:58 51°26.323 2°48.865 16.1051 0.917865 6.007296 -2.458615
2012-04-19 09:09:03 51°26.324 2°48.867 16.0927 1.004279 6.618655 -2.458615
2012-04-19 09:09:07 51°26.324 2°48.868 16.0612 1.004279 6.618655 -2.458615
2012-04-19 09:09:13 51°26.325 2°48.87 16.0695 0.965139 6.340842 -2.458615
2012-04-19 09:09:18 51°26.326 2°48.872 16.0746 0.982442 6.463311 -2.458615
2012-04-19 09:09:23 51°26.327 2°48.873 16.076 0.947938 6.218828 -2.458615
2012-04-19 09:09:28 51°26.327 2°48.874 16.0759 0.969053 6.367792 -2.458615
2012-04-19 09:09:33 51°26.327 2°48.876 16.0915 0.835997 5.43266 -2.458615
2012-04-19 09:09:38 51°26.327 2°48.877 16.0856 0.835997 5.43266 -2.458615
2012-04-19 09:09:43 51°26.328 2°48.878 16.0943 0.975129 6.411282 -2.458615
2012-04-19 09:09:48 51°26.329 2°48.879 16.0837 1.002734 6.606927 -2.458615
2012-04-19 09:09:53 51°26.329 2°48.881 16.0819 0.952058 6.248277 -2.458615
2012-04-19 09:09:58 51°26.33 2°48.882 16.0719 1.009841 6.657765 -2.458615
2012-04-19 09:10:03 51°26.33 2°48.883 16.0735 0.989446 6.513816 -2.458615
2012-04-19 09:10:08 51°26.331 2°48.885 16.0939 0.989446 6.513816 -2.458615
2012-04-19 09:10:13 51°26.332 2°48.886 16.1078 1.002013 6.602951 -2.458615
2012-04-19 09:10:18 51°26.333 2°48.887 16.1156 1.031473 6.812192 -2.458615
2012-04-19 09:10:23 51°26.333 2°48.889 16.109 0.785133 5.079609 -2.458615
2012-04-19 09:10:28 51°26.334 2°48.89 16.1046 0.798724 5.173829 -2.458615
2012-04-19 09:10:33 51°26.335 2°48.891 16.0963 0.989446 6.513691 -2.458615
2012-04-19 09:10:38 51°26.336 2°48.893 16.0999 0.989446 6.513691 -2.458615
2012-04-19 09:10:43 51°26.336 2°48.894 16.0952 1.015198 6.696199 -2.458615
2012-04-19 09:10:48 51°26.337 2°48.895 16.0966 1.005927 6.630737 -2.458615
2012-04-19 09:10:53 51°26.338 2°48.896 16.1048 0.921058 6.030005 -2.458615
2012-04-19 09:10:58 51°26.338 2°48.898 16.1034 0.981927 6.459043 -2.458615
2012-04-19 09:11:03 51°26.339 2°48.899 16.0881 0.901388 5.890834 -2.458615
2012-04-19 09:11:08 51°26.34 2°48.9 16.0904 0.901388 5.890834 -2.458615
2012-04-19 09:11:13 51°26.341 2°48.902 16.0917 1.019318 6.724836 -2.458615
2012-04-19 09:11:18 51°26.341 2°48.903 16.0876 1.032297 6.817402 -2.458615
2012-04-19 09:11:23 51°26.342 2°48.904 16.0765 1.029207 6.795805 -2.458615
2012-04-19 09:11:27 51°26.343 2°48.905 16.0864 1.004382 6.620022 -2.458615
2012-04-19 09:11:33 51°26.343 2°48.907 16.089 1.027662 6.786377 -2.458615
2012-04-19 09:11:38 51°26.344 2°48.909 16.1106 1.027662 6.786377 -2.458615
2012-04-19 09:11:43 51°26.345 2°48.91 16.0945 1.017464 6.714495 -2.458615
2012-04-19 09:11:48 51°26.345 2°48.912 16.0942 1.026219 6.777289 -2.458615
2012-04-19 09:11:53 51°26.346 2°48.913 16.084 0.985326 6.487106 -2.458615
2012-04-19 09:11:58 51°26.347 2°48.915 16.1136 0.945776 6.207613 -2.458615
2012-04-19 09:12:03 51°26.347 2°48.917 16.098 0.965242 6.345713 -2.458615
2012-04-19 09:12:08 51°26.348 2°48.918 16.1064 0.965242 6.345713 -2.458615
2012-04-19 09:12:13 51°26.349 2°48.92 16.1026 0.972761 6.399677 -2.458615
2012-04-19 09:12:18 51°26.349 2°48.922 16.1071 0.962461 6.327374 -2.458615
2012-04-19 09:12:23 51°26.35 2°48.924 16.1105 0.977808 6.436543 -2.458615
2012-04-19 09:12:28 51°26.351 2°48.925 16.0862 1.016743 6.713756 -2.458615
2012-04-19 09:12:33 51°26.351 2°48.927 16.092 1.003558 6.620913 -2.458615
2012-04-19 09:12:38 51°26.352 2°48.929 16.1042 1.003558 6.620913 -2.458615
2012-04-19 09:12:43 51°26.352 2°48.931 16.121 1.011901 6.681509 -2.458615
2012-04-19 09:12:48 51°26.353 2°48.932 16.1219 1.022614 6.759434 -2.458615
2012-04-19 09:12:53 51°26.354 2°48.934 16.1352 0.999026 6.593153 -2.458615
2012-04-19 09:12:58 51°26.354 2°48.936 16.1065 0.834968 5.436948 -2.458615
2012-04-19 09:13:03 51°26.355 2°48.938 16.1055 0.99058 6.534904 -2.458615
2012-04-19 09:13:08 51°26.355 2°48.94 16.1169 0.99058 6.534904 -2.458615
2012-04-19 09:13:13 51°26.355 2°48.942 16.1008 1.009429 6.668674 -2.458615
2012-04-19 09:13:18 51°26.356 2°48.943 16.1082 0.939802 6.174571 -2.458615
2012-04-19 09:13:23 51°26.357 2°48.945 16.0891 0.975954 6.4307 -2.458615
2012-04-19 09:13:28 51°26.357 2°48.946 16.1039 0.988314 6.517679 -2.458615
2012-04-19 09:13:33 51°26.358 2°48.948 16.1035 0.986151 6.501194 -2.458615
2012-04-19 09:13:38 51°26.359 2°48.95 16.0962 0.986151 6.501194 -2.458615
2012-04-19 09:13:43 51°26.359 2°48.952 16.1057 0.975336 6.42409 -2.458615
2012-04-19 09:13:47 51°26.36 2°48.953 16.1033 0.975027 6.421776 -2.458615
2012-04-19 09:13:53 51°26.361 2°48.955 16.1133 0.988829 6.519705 -2.458615
2012-04-19 09:13:58 51°26.361 2°48.957 16.1252 0.983473 6.481812 -2.458615
2012-04-19 09:14:03 51°26.362 2°48.958 16.1279 0.960401 6.318021 -2.458615
2012-04-19 09:14:08 51°26.363 2°48.96 16.1241 0.960401 6.318021 -2.458615
2012-04-19 09:14:13 51°26.363 2°48.962 16.1027 0.986048 6.499837 -2.458615
2012-04-19 09:14:18 51°26.364 2°48.963 16.1217 0.998099 6.585677 -2.458615
2012-04-19 09:14:23 51°26.365 2°48.965 16.1041 0.994185 6.55812 -2.458615
2012-04-19 09:14:28 51°26.365 2°48.967 16.1121 0.97822 6.445039 -2.458615
2012-04-19 09:14:33 51°26.366 2°48.969 16.1184 1.00912 6.665064 -2.458615
2012-04-19 09:14:38 51°26.367 2°48.97 16.1346 1.00912 6.665064 -2.458615
2012-04-19 09:14:43 51°26.368 2°48.972 16.145 0.996554 6.576344 -2.458615
2012-04-19 09:14:48 51°26.368 2°48.974 16.1662 0.998614 6.591367 -2.458615
2012-04-19 09:14:53 51°26.369 2°48.975 16.1553 0.926826 6.083245 -2.458615
2012-04-19 09:14:58 51°26.37 2°48.977 16.0999 0.988829 6.522843 -2.458615
2012-04-19 09:15:03 51°26.37 2°48.979 16.1164 0.96586 6.359987 -2.458615
2012-04-19 09:15:08 51°26.371 2°48.981 16.1122 0.96586 6.359987 -2.458615
2012-04-19 09:15:13 51°26.372 2°48.982 16.1172 0.970495 6.393093 -2.458615
2012-04-19 09:15:18 51°26.372 2°48.984 16.1101 0.99779 6.587158 -2.458615
2012-04-19 09:15:23 51°26.373 2°48.986 16.1013 1.004588 6.635764 -2.458615
2012-04-19 09:15:28 51°26.374 2°48.987 16.1099 1.002837 6.623689 -2.458615
2012-04-19 09:15:33 51°26.375 2°48.989 16.1109 1.00191 6.617349 -2.458615
2012-04-19 09:15:38 51°26.376 2°48.99 16.1175 1.00191 6.617349 -2.458615
2012-04-19 09:15:43 51°26.376 2°48.991 16.1131 0.954633 6.281907 -2.458615
2012-04-19 09:15:48 51°26.377 2°48.993 16.1226 0.986254 6.506308 -2.458615
2012-04-19 09:15:53 51°26.377 2°48.994 16.1376 0.965963 6.36231 -2.458615
2012-04-19 09:15:58 51°26.378 2°48.996 16.142 0.981722 6.474246 -2.458615
2012-04-19 09:16:03 51°26.379 2°48.997 16.1369 0.97204 6.405283 -2.458615
2012-04-19 09:16:08 51°26.38 2°48.999 16.1199 0.97204 6.405283 -2.458615
2012-04-19 09:16:13 51°26.38 2°49 16.1187 1.005103 6.640835 -2.458615
2012-04-19 09:16:18 51°26.381 2°49.002 16.1338 0.969465 6.388126 -2.458615
2012-04-19 09:16:23 51°26.382 2°49.003 16.1302 0.964212 6.351242 -2.458615
2012-04-19 09:16:28 51°26.382 2°49.004 16.1465 0.993567 6.560423 -2.458615
2012-04-19 09:16:33 51°26.383 2°49.006 16.1223 0.962049 6.337373 -2.458615
2012-04-19 09:16:38 51°26.384 2°49.007 16.143 0.962049 6.337373 -2.458615
2012-04-19 09:16:43 51°26.385 2°49.008 16.1212 0.906022 5.942689 -2.458615
2012-04-19 09:16:47 51°26.386 2°49.01 16.1363 0.977396 6.447509 -2.458615
2012-04-19 09:16:53 51°26.387 2°49.011 16.1409 0.948042 6.238003 -2.458615
2012-04-19 09:16:58 51°26.387 2°49.012 16.1631 0.960916 6.328121 -2.458615
2012-04-19 09:17:03 51°26.388 2°49.014 16.1619 0.984915 6.497673 -2.458615
2012-04-19 09:17:08 51°26.389 2°49.015 16.1347 0.984915 6.497673 -2.458615
2012-04-19 09:17:13 51°26.39 2°49.016 16.1077 0.97101 6.398347 -2.458615
2012-04-19 09:17:18 51°26.39 2°49.017 16.1205 0.969877 6.390064 -2.458615
2012-04-19 09:17:23 51°26.391 2°49.019 16.1329 0.969671 6.388603 -2.458615
2012-04-19 09:17:28 51°26.392 2°49.02 16.1338 0.980177 6.463276 -2.458615
2012-04-19 09:17:33 51°26.393 2°49.022 16.1326 0.902418 5.913624 -2.458615
2012-04-19 09:17:38 51°26.394 2°49.023 16.1428 0.902418 5.913624 -2.458615
2012-04-19 09:17:43 51°26.395 2°49.025 16.1376 0.958959 6.3134 -2.458615
2012-04-19 09:17:48 51°26.395 2°49.026 16.1216 0.977911 6.447066 -2.458615
2012-04-19 09:17:53 51°26.396 2°49.028 16.144 0.957414 6.301361 -2.458615
2012-04-19 09:17:58 51°26.397 2°49.03 16.1478 0.99264 6.55118 -2.458615
2012-04-19 09:18:03 51°26.398 2°49.031 16.1645 1.006854 6.652273 -2.458615
2012-04-19 09:18:08 51°26.398 2°49.033 16.1553 1.006854 6.652273 -2.458615
2012-04-19 09:18:14 51°26.399 2°49.035 16.1249 0.966993 6.368631 -2.458615
2012-04-19 09:18:18 51°26.4 2°49.036 16.145 0.983576 6.486287 -2.458615
2012-04-19 09:18:23 51°26.401 2°49.038 16.1458 0.971216 6.398699 -2.458615
2012-04-19 09:18:28 51°26.401 2°49.04 16.1494 1.005515 6.642488 -2.458615
2012-04-19 09:18:33 51°26.403 2°49.042 16.1529 0.978426 6.449976 -2.458615
2012-04-19 09:18:38 51°26.403 2°49.043 16.1674 0.978426 6.449976 -2.458615
2012-04-19 09:18:43 51°26.404 2°49.044 16.1718 0.955869 6.290176 -2.458615
2012-04-19 09:18:48 51°26.405 2°49.044 16.1714 0.912819 5.985919 -2.458615
2012-04-19 09:18:53 51°26.406 2°49.044 16.1495 0.989241 6.526901 -2.458615
2012-04-19 09:18:58 51°26.408 2°49.044 16.1754 1.001395 6.613431 -2.458615
2012-04-19 09:19:03 51°26.409 2°49.044 16.1642 0.991816 6.54545 -2.458615
2012-04-19 09:19:07 51°26.41 2°49.043 16.1653 0.991816 6.54545 -2.458615
2012-04-19 09:19:13 51°26.411 2°49.042 16.1853 0.98131 6.471071 -2.458615
2012-04-19 09:19:18 51°26.412 2°49.04 16.1679 0.961946 6.33408 -2.458615
2012-04-19 09:19:23 51°26.413 2°49.039 16.1594 0.950308 6.252001 -2.458615
2012-04-19 09:19:28 51°26.414 2°49.038 16.1597 0.949793 6.248957 -2.458615
2012-04-19 09:19:33 51°26.415 2°49.036 16.1676 0.978735 6.454283 -2.458615
2012-04-19 09:19:38 51°26.416 2°49.034 16.1817 0.978735 6.454283 -2.458615
2012-04-19 09:19:43 51°26.417 2°49.032 16.1919 0.953398 6.274605 -2.458615
2012-04-19 09:19:48 51°26.418 2°49.029 16.1983 0.981825 6.476225 -2.458615
2012-04-19 09:19:53 51°26.418 2°49.028 16.1933 0.99367 6.560523 -2.458615
2012-04-19 09:19:58 51°26.418 2°49.026 16.1577 0.956178 6.294546 -2.458615
2012-04-19 09:20:03 51°26.419 2°49.023 16.1632 0.978014 6.449661 -2.458615
2012-04-19 09:20:08 51°26.419 2°49.021 16.1442 0.978014 6.449661 -2.458615
2012-04-19 09:20:13 51°26.419 2°49.018 16.1716 0.976984 6.442845 -2.458615
2012-04-19 09:20:18 51°26.419 2°49.016 16.1536 0.993361 6.559716 -2.458615
2012-04-19 09:20:23 51°26.419 2°49.013 16.1605 0.981104 6.473474 -2.458615
2012-04-19 09:20:27 51°26.419 2°49.011 16.1803 0.965036 6.360025 -2.458615
2012-04-19 09:20:33 51°26.419 2°49.008 16.1765 0.984297 6.497789 -2.458615
2012-04-19 09:20:38 51°26.418 2°49.005 16.1729 0.984297 6.497789 -2.458615
2012-04-19 09:20:43 51°26.418 2°49.002 16.1797 0.98543 6.507223 -2.458615
2012-04-19 09:20:48 51°26.417 2°48.999 16.1604 0.952883 6.27664 -2.458615
2012-04-19 09:20:53 51°26.417 2°48.996 16.1662 0.937228 6.166461 -2.458615
2012-04-19 09:20:58 51°26.416 2°48.992 16.1788 0.966272 6.372848 -2.458615
2012-04-19 09:21:03 51°26.415 2°48.989 16.1941 0.973688 6.426134 -2.458615
2012-04-19 09:21:08 51°26.414 2°48.984 16.2032 0.973688 6.426134 -2.458615
2012-04-19 09:21:13 51°26.413 2°48.981 16.1927 0.978014 6.457625 -2.458615
2012-04-19 09:21:18 51°26.412 2°48.976 16.1961 0.901697 5.917205 -2.458615
2012-04-19 09:21:23 51°26.411 2°48.971 16.1626 0.975439 6.439446 -2.458615
2012-04-19 09:21:28 51°26.409 2°48.965 16.1512 0.965654 6.370058 -2.458615
2012-04-19 09:21:33 51°26.408 2°48.96 16.1751 0.951956 6.272731 -2.458615
2012-04-19 09:21:38 51°26.406 2°48.954 16.1799 0.951956 6.272731 -2.458615
2012-04-19 09:21:43 51°26.405 2°48.948 16.1832 0.947527 6.241332 -2.458615
2012-04-19 09:21:48 51°26.403 2°48.941 16.1904 0.949896 6.258004 -2.458615
2012-04-19 09:21:53 51°26.402 2°48.935 16.1845 0.91972 6.044375 -2.458615
2012-04-19 09:21:58 51°26.4 2°48.928 16.1753 0.932181 6.132401 -2.458615
2012-04-19 09:22:03 51°26.399 2°48.922 16.1832 0.943201 6.210557 -2.458615
2012-04-19 09:22:08 51°26.397 2°48.915 16.1791 0.943201 6.210557 -2.458615
2012-04-19 09:22:13 51°26.396 2°48.909 16.1618 0.953089 6.280765 -2.458615
2012-04-19 09:22:18 51°26.395 2°48.902 16.1608 0.972761 6.420415 -2.458615
2012-04-19 09:22:23 51°26.393 2°48.895 16.188 0.949793 6.257636 -2.458615
2012-04-19 09:22:28 51°26.392 2°48.888 16.1966 0.882234 5.780222 -2.458615
2012-04-19 09:22:33 51°26.39 2°48.881 16.1823 0.957208 6.310111 -2.458615
2012-04-19 09:22:38 51°26.389 2°48.875 16.1732 0.957208 6.310111 -2.458615
2012-04-19 09:22:43 51°26.387 2°48.867 16.1647 0.959371 6.325337 -2.458615
2012-04-19 09:22:47 51°26.386 2°48.862 16.1672 0.916321 6.020471 -2.458615
2012-04-19 09:22:53 51°26.383 2°48.854 16.1895 0.917969 6.032349 -2.458615
2012-04-19 09:22:58 51°26.381 2°48.846 16.179 0.952883 6.279789 -2.458615
2012-04-19 09:23:03 51°26.379 2°48.839 16.1611 0.969877 6.400544 -2.458615
2012-04-19 09:23:08 51°26.377 2°48.831 16.1643 0.969877 6.400544 -2.458615
2012-04-19 09:23:13 51°26.375 2°48.824 16.1768 0.986563 6.519304 -2.458615
2012-04-19 09:23:18 51°26.372 2°48.817 16.175 0.956076 6.302924 -2.458615
2012-04-19 09:23:23 51°26.37 2°48.809 16.1704 0.994082 6.573333 -2.458615
2012-04-19 09:23:28 51°26.367 2°48.802 16.1853 0.848252 5.542492 -2.458615
2012-04-19 09:23:33 51°26.366 2°48.795 16.2046 0.901697 5.919146 -2.458615
2012-04-19 09:23:38 51°26.364 2°48.789 16.1905 0.901697 5.919146 -2.458615
2012-04-19 09:23:43 51°26.361 2°48.782 16.1883 0.953295 6.284166 -2.458615
2012-04-19 09:23:48 51°26.359 2°48.775 16.1877 0.979971 6.473162 -2.458615
2012-04-19 09:23:53 51°26.357 2°48.768 16.1639 0.954325 6.290624 -2.458615
2012-04-19 09:23:58 51°26.355 2°48.76 16.1871 0.937434 6.170895 -2.458615
2012-04-19 09:24:03 51°26.352 2°48.753 16.1913 0.96792 6.387259 -2.458615
2012-04-19 09:24:08 51°26.35 2°48.746 16.2009 0.96792 6.387259 -2.458615
2012-04-19 09:24:13 51°26.348 2°48.739 16.1928 0.956179 6.30402 -2.458615
2012-04-19 09:24:18 51°26.346 2°48.732 16.1886 0.933623 6.144385 -2.458615
2012-04-19 09:24:23 51°26.344 2°48.724 16.1992 0.93249 6.136719 -2.458615
2012-04-19 09:24:28 51°26.341 2°48.716 16.41 0.981104 6.481721 -2.458615
2012-04-19 09:24:33 51°26.339 2°48.708 15.1324 0.96998 6.403129 -2.458615
2012-04-19 09:24:38 51°26.335 2°48.699 15.0915 0.96998 6.403129 -2.458615
2012-04-19 09:24:43 51°26.332 2°48.689 15.2252 0.949072 6.254577 -2.458615
2012-04-19 09:24:47 51°26.329 2°48.681 15.1139 0.891708 5.848444 -2.458615
2012-04-19 09:24:53 51°26.325 2°48.669 15.4481 0.872348 5.711735 -2.458615
2012-04-19 09:24:58 51°26.321 2°48.659 15.429 0.89109 5.843749 -2.458615
2012-04-19 09:25:03 51°26.316 2°48.648 15.4747 0.837131 5.464266 -2.458615
2012-04-19 09:25:08 51°26.311 2°48.636 15.4481 0.837131 5.464266 -2.458615
2012-04-19 09:25:13 51°26.306 2°48.623 15.5591 0.957312 6.31206 -2.458615
2012-04-19 09:25:18 51°26.3 2°48.61 15.5284 0.894076 5.864582 -2.458615
2012-04-19 09:25:23 51°26.294 2°48.595 15.4852 0.947424 6.241927 -2.458615
2012-04-19 09:25:28 51°26.288 2°48.579 15.4489 0.911481 5.987545 -2.458615
2012-04-19 09:25:33 51°26.282 2°48.563 15.5832 0.893356 5.860403 -2.458615
2012-04-19 09:25:38 51°26.275 2°48.546 15.6136 0.893356 5.860403 -2.458615
2012-04-19 09:25:43 51°26.268 2°48.528 15.6691 0.89902 5.900362 -2.458615
2012-04-19 09:25:48 51°26.26 2°48.51 15.6163 0.863904 5.653213 -2.458615
2012-04-19 09:25:53 51°26.253 2°48.492 15.5386 0.807991 5.260396 -2.458615
2012-04-19 09:25:58 51°26.245 2°48.473 15.5655 0.88419 5.793668 -2.458615
2012-04-19 09:26:03 51°26.237 2°48.453 15.55 0.907876 5.960935 -2.458615
2012-04-19 09:26:08 51°26.229 2°48.434 15.7126 0.907876 5.960935 -2.458615
2012-04-19 09:26:13 51°26.221 2°48.414 15.628 0.938155 6.174929 -2.458615
2012-04-19 09:26:18 51°26.213 2°48.394 15.6517 0.921779 6.058703 -2.458615
2012-04-19 09:26:23 51°26.205 2°48.373 15.6679 0.935374 6.154763 -2.458615
2012-04-19 09:26:28 51°26.196 2°48.352 15.679 0.913129 5.997336 -2.458615
2012-04-19 09:26:33 51°26.188 2°48.33 15.6814 0.978014 6.457002 -2.458615
2012-04-19 09:26:38 51°26.18 2°48.309 15.6397 0.978014 6.457002 -2.458615
2012-04-19 09:26:43 51°26.172 2°48.287 15.7184 0.941553 6.198404 -2.458615
2012-04-19 09:26:48 51°26.164 2°48.265 15.7537 0.902109 5.919883 -2.458615
2012-04-19 09:26:53 51°26.156 2°48.242 15.7297 0.905199 5.942031 -2.458615
2012-04-19 09:26:58 51°26.148 2°48.22 15.7272 0.92662 6.093521 -2.458615
2012-04-19 09:27:03 51°26.141 2°48.197 15.6642 0.922397 6.063657 -2.458615
2012-04-19 09:27:07 51°26.135 2°48.179 15.6892 0.922397 6.063657 -2.458615
2012-04-19 09:27:13 51°26.126 2°48.151 15.7065 0.949381 6.254715 -2.458615
2012-04-19 09:27:18 51°26.118 2°48.129 15.6683 0.809844 5.27274 -2.458615
2012-04-19 09:27:23 51°26.111 2°48.106 15.6811 0.909833 5.975789 -2.458615
2012-04-19 09:27:28 51°26.103 2°48.083 15.6549 0.949072 6.253852 -2.458615
2012-04-19 09:27:33 51°26.096 2°48.061 15.6633 0.873789 5.722322 -2.458615
2012-04-19 09:27:38 51°26.088 2°48.038 15.7048 0.873789 5.722322 -2.458615
2012-04-19 09:27:43 51°26.081 2°48.015 15.6686 0.9156 6.018279 -2.458615
2012-04-19 09:27:47 51°26.075 2°47.996 15.6603 0.842794 5.505151 -2.458615
2012-04-19 09:27:53 51°26.066 2°47.97 15.7331 0.889751 5.834649 -2.458615
2012-04-19 09:27:58 51°26.058 2°47.947 15.6791 0.885838 5.806842 -2.458615
2012-04-19 09:28:03 51°26.051 2°47.925 15.6633 0.823024 5.365752 -2.458615
2012-04-19 09:28:08 51°26.043 2°47.902 15.7593 0.823024 5.365752 -2.458615
2012-04-19 09:28:13 51°26.036 2°47.88 15.6633 0.972246 6.41911 -2.458615
2012-04-19 09:28:18 51°26.028 2°47.857 15.6579 0.781221 5.074266 -2.458615
2012-04-19 09:28:23 51°26.02 2°47.835 15.6865 0.958753 6.323514 -2.458615
2012-04-19 09:28:27 51°26.014 2°47.818 15.7068 0.908288 5.967066 -2.458615
2012-04-19 09:28:33 51°26.004 2°47.792 15.6931 0.905817 5.949377 -2.458615
2012-04-19 09:28:38 51°25.995 2°47.771 15.7653 0.905817 5.949377 -2.458615
2012-04-19 09:28:43 51°25.986 2°47.75 15.6733 0.955355 6.300241 -2.458615
2012-04-19 09:28:48 51°25.977 2°47.729 15.6872 0.83435 5.448035 -2.458615
2012-04-19 09:28:53 51°25.968 2°47.708 15.7477 0.935992 6.165085 -2.458615
2012-04-19 09:28:58 51°25.958 2°47.687 15.7515 0.986254 6.521259 -2.458615
2012-04-19 09:29:03 51°25.948 2°47.667 15.6904 0.914158 6.008783 -2.458615
2012-04-19 09:29:08 51°25.939 2°47.647 15.7252 0.914158 6.008783 -2.458615
2012-04-19 09:29:13 51°25.929 2°47.626 15.6961 0.942995 6.214013 -2.458615
2012-04-19 09:29:18 51°25.92 2°47.606 15.7414 0.864625 5.661232 -2.458615
2012-04-19 09:29:23 51°25.91 2°47.586 15.7343 0.971422 6.416102 -2.458615
2012-04-19 09:29:28 51°25.9 2°47.565 15.7364 0.978323 6.465311 -2.458615
2012-04-19 09:29:33 51°25.891 2°47.544 15.748 0.944334 6.223988 -2.458615
2012-04-19 09:29:38 51°25.881 2°47.524 15.7255 0.944334 6.223988 -2.458615
2012-04-19 09:29:43 51°25.871 2°47.503 15.7297 0.930534 6.12665 -2.458615
2012-04-19 09:29:48 51°25.862 2°47.483 15.7083 0.975954 6.449828 -2.458615
2012-04-19 09:29:53 51°25.853 2°47.462 15.6919 0.895724 5.88165 -2.458615
2012-04-19 09:29:58 51°25.843 2°47.442 15.7572 0.969465 6.404539 -2.458615
2012-04-19 09:30:03 51°25.833 2°47.421 15.7112 0.88728 5.823632 -2.458615
2012-04-19 09:30:08 51°25.824 2°47.401 15.7533 0.88728 5.823632 -2.458615
2012-04-19 09:30:13 51°25.814 2°47.38 15.7155 0.976984 6.460402 -2.458615
2012-04-19 09:30:18 51°25.805 2°47.359 15.7821 0.938567 6.188354 -2.458615
2012-04-19 09:30:23 51°25.796 2°47.338 15.7241 0.961123 6.350018 -2.458615
2012-04-19 09:30:28 51°25.787 2°47.317 15.7905 0.954737 6.305108 -2.458615
2012-04-19 09:30:33 51°25.778 2°47.296 15.7595 0.899947 5.918784 -2.458615
2012-04-19 09:30:38 51°25.769 2°47.274 15.739 0.899947 5.918784 -2.458615
2012-04-19 09:30:43 51°25.761 2°47.253 15.7411 0.999954 6.630132 -2.458615
2012-04-19 09:30:48 51°25.753 2°47.23 15.6973 0.881616 5.790841 -2.458615
2012-04-19 09:30:53 51°25.744 2°47.209 15.7831 0.975542 6.456879 -2.458615
2012-04-19 09:30:58 51°25.737 2°47.187 15.747 0.988726 6.550631 -2.458615
2012-04-19 09:31:03 51°25.728 2°47.165 15.7109 0.857313 5.619792 -2.458615
2012-04-19 09:31:08 51°25.72 2°47.144 15.719 0.857313 5.619792 -2.458615
2012-04-19 09:31:13 51°25.712 2°47.122 15.7628 0.932388 6.150356 -2.458615
2012-04-19 09:31:18 51°25.704 2°47.1 15.737 0.954531 6.307793 -2.458615
2012-04-19 09:31:23 51°25.696 2°47.079 15.7368 0.91488 6.02668 -2.458615
2012-04-19 09:31:28 51°25.689 2°47.057 15.7129 0.961638 6.360447 -2.458615
2012-04-19 09:31:33 51°25.681 2°47.035 15.7295 0.849179 5.56392 -2.458615
2012-04-19 09:31:38 51°25.673 2°47.013 15.7464 0.849179 5.56392 -2.458615
2012-04-19 09:31:43 51°25.665 2°46.992 15.7325 0.93867 6.195794 -2.458615
2012-04-19 09:31:48 51°25.656 2°46.971 15.7367 0.947836 6.259832 -2.458615
2012-04-19 09:31:53 51°25.648 2°46.95 15.7316 0.964007 6.374351 -2.458615
2012-04-19 09:31:58 51°25.639 2°46.928 15.7384 0.865449 5.676894 -2.458615
2012-04-19 09:32:03 51°25.631 2°46.908 15.7484 0.957312 6.328063 -2.458615
2012-04-19 09:32:07 51°25.624 2°46.891 15.7057 0.957312 6.328063 -2.458615
2012-04-19 09:32:13 51°25.614 2°46.866 15.7521 0.757438 4.920608 -2.458615
2012-04-19 09:32:18 51°25.605 2°46.846 15.7314 0.96308 6.36911 -2.458615
2012-04-19 09:32:23 51°25.596 2°46.826 15.7453 0.850826 5.573684 -2.458615